Darstellungsparameter: Aktuell verwendete Einstellungen:
Skalierung der Graphiken ... ?
xyx+y,   Skalierungsfaktor:      Skalierung: Modus: x, Faktor: 1
Darstellungszeitraum ... ?
Vom - - bis: - -   Zeitraum: 05.03.2008 - 04.03.2011
Min/Max/Avg-Anzeige ... ?
Zeige MMA aktuell
Zeige MMA Monat
Zeige MMA alles
Zeige --A aktuell
Zeige --A Monat
Zeige --A alles
Keine MMA-Anzeige
MMA:
Minimum Maximum Average (ber die Originaldaten)
MMA-Basis: 05.03.2008 - 04.03.2011
Quicknavigation für Darstellung... ?
Tage:      1T, 2T, 3T, 5T -1T -2T -3T -5T +1T +2T +3T +5T
Wochen: 1W, 2W, 3W -1W -2W -3W +1W +2W +3W
Monate: 1M, 3M, 6M -1M -3M -6M +1M +3M +6M
Jahre:    1J, 3J, 5J, 10J -1J -3J -5J -10J +1J +3J +5J +10J
Nutze für die Darstellung ... ?
Originaldaten oder ...
Mittelwerte Minima Maxima auf...
Stundenbasis Tagesbasis Wochenbasis
Monatsbasis Jahresbasis      Datenbasis: Mittelwerte auf Tagesbasis
Darstellen als:
Statistik (Auto) Statistik J:M      Darstellung:
Zur Graphik,    zurück zur Übersicht aller Sensoren.
 
Tabellarische Datenbersicht: ?
 
Sensor: Nr:Datum:Temp:Abs-Feuchte:Windchill:Wind:
Aussen-T/F 1 05-03-2008 00:00:00 1.71 C 3.03 g/m*3 1.71 C 0 km/h
2 06-03-2008 00:00:00 2.81917 C 2.99 g/m*3 2.82 C 0 km/h
3 07-03-2008 00:00:00 6.93833 C 4.72 g/m*3 6.94 C 0 km/h
4 08-03-2008 00:00:00 6.94667 C 4.5 g/m*3 6.95 C 0 km/h
5 09-03-2008 00:00:00 8.06667 C 4.11 g/m*3 8.07 C 0 km/h
6 10-03-2008 00:00:00 8.22941 C 4.32 g/m*3 8.23 C 0 km/h
7 11-03-2008 00:00:00 8.355 C 5.31 g/m*3 8.36 C 0 km/h
8 12-03-2008 00:00:00 9.11833 C 4.2 g/m*3 9.12 C 0 km/h
9 13-03-2008 00:00:00 7.62667 C 4.06 g/m*3 7.63 C 0 km/h
10 14-03-2008 00:00:00 9.14417 C 5.77 g/m*3 9.14 C 0 km/h
11 15-03-2008 00:00:00 9.33 C 5.42 g/m*3 9.33 C 0 km/h
12 16-03-2008 00:00:00 9.8675 C 6.68 g/m*3 9.87 C 0 km/h
13 17-03-2008 00:00:00 5.94583 C 3.99 g/m*3 5.95 C 0 km/h
14 18-03-2008 00:00:00 4.26083 C 3.07 g/m*3 4.26 C 0 km/h
15 19-03-2008 00:00:00 3.37083 C 3.9 g/m*3 3.37 C 0 km/h
16 20-03-2008 00:00:00 3.89083 C 4.07 g/m*3 3.89 C 0 km/h
17 21-03-2008 00:00:00 3.9975 C 4.22 g/m*3 4 C 0 km/h
18 22-03-2008 00:00:00 2.82917 C 4.71 g/m*3 2.83 C 0 km/h
19 23-03-2008 00:00:00 1.56639 C 2.31 g/m*3 1.57 C 0 km/h
20 24-03-2008 00:00:00 -0.00917 C 3.2 g/m*3 -0.01 C 0 km/h
21 25-03-2008 00:00:00 1.51333 C 3.09 g/m*3 1.51 C 0 km/h
22 26-03-2008 00:00:00 2.39667 C 4.29 g/m*3 2.4 C 0 km/h
23 27-03-2008 00:00:00 5.29417 C 5.44 g/m*3 5.29 C 0 km/h
24 28-03-2008 00:00:00 8.15333 C 4.14 g/m*3 8.15 C 0 km/h
25 29-03-2008 00:00:00 9.55083 C 3.95 g/m*3 9.55 C 0 km/h
Sensor: Nr:Datum:Temp:Abs-Feuchte:Windchill:Wind:
Aussen-T/F 26 30-03-2008 00:00:00 13.03217 C 4.01 g/m*3 13.03 C 0 km/h
27 31-03-2008 00:00:00 11.98333 C 5.6 g/m*3 11.98 C 0 km/h
28 01-04-2008 00:00:00 10.06833 C 5.37 g/m*3 10.07 C 0 km/h
29 02-04-2008 00:00:00 9.77417 C 5.52 g/m*3 9.77 C 0 km/h
30 03-04-2008 00:00:00 7.48 C 5.75 g/m*3 7.48 C 0 km/h
31 04-04-2008 00:00:00 9.15583 C 5.79 g/m*3 9.16 C 0 km/h
32 05-04-2008 00:00:00 7.49076 C 6.73 g/m*3 7.49 C 0 km/h
33 06-04-2008 00:00:00 3.825 C 5.64 g/m*3 3.83 C 0 km/h
34 07-04-2008 00:00:00 1.36917 C 4.88 g/m*3 1.37 C 0 km/h
35 08-04-2008 00:00:00 3.57833 C 4.72 g/m*3 3.58 C 0 km/h
36 09-04-2008 00:00:00 5.82833 C 5.5 g/m*3 5.83 C 0 km/h
37 10-04-2008 00:00:00 8.76917 C 5.74 g/m*3 8.77 C 0 km/h
38 11-04-2008 00:00:00 8.235 C 6.34 g/m*3 8.24 C 0 km/h
39 12-04-2008 00:00:00 8.02 C 5.41 g/m*3 8.02 C 0 km/h
40 13-04-2008 00:00:00 9.70833 C 6.56 g/m*3 9.71 C 0 km/h
41 14-04-2008 00:00:00 7.63083 C 6.9 g/m*3 7.63 C 0 km/h
42 15-04-2008 00:00:00 6.56083 C 5.99 g/m*3 6.56 C 0 km/h
43 16-04-2008 00:00:00 6.30083 C 4.78 g/m*3 6.3 C 0 km/h
44 17-04-2008 00:00:00 6.47227 C 4.04 g/m*3 6.47 C 0 km/h
45 18-04-2008 00:00:00 9.94 C 4.58 g/m*3 9.94 C 0 km/h
46 19-04-2008 00:00:00 8.41667 C 6.18 g/m*3 8.42 C 0 km/h
47 20-04-2008 00:00:00 12.42417 C 7.14 g/m*3 12.42 C 0 km/h
48 21-04-2008 00:00:00 12.98833 C 6.29 g/m*3 12.99 C 0 km/h
49 22-04-2008 00:00:00 12.95917 C 5.98 g/m*3 12.96 C 0 km/h
50 23-04-2008 00:00:00 13.95083 C 6.27 g/m*3 13.95 C 0 km/h
Sensor: Nr:Datum:Temp:Abs-Feuchte:Windchill:Wind:
Aussen-T/F 51 24-04-2008 00:00:00 15.095 C 7.14 g/m*3 15.1 C 0 km/h
52 25-04-2008 00:00:00 12.67583 C 6.12 g/m*3 12.68 C 0 km/h
53 26-04-2008 00:00:00 14.51833 C 6.16 g/m*3 14.52 C 0 km/h
54 27-04-2008 00:00:00 15.87667 C 5.79 g/m*3 15.88 C 0 km/h
55 28-04-2008 00:00:00 13.4125 C 8.14 g/m*3 13.41 C 0 km/h
56 29-04-2008 00:00:00 13.07667 C 6.39 g/m*3 13.08 C 0 km/h
57 30-04-2008 00:00:00 13.76639 C 5.33 g/m*3 13.77 C 0 km/h
58 01-05-2008 00:00:00 11.62583 C 5.8 g/m*3 11.63 C 0 km/h
59 02-05-2008 00:00:00 12.97583 C 6.28 g/m*3 12.98 C 0 km/h
60 03-05-2008 00:00:00 14.47667 C 6.5 g/m*3 14.48 C 0 km/h
61 04-05-2008 00:00:00 17.15667 C 5.91 g/m*3 17.16 C 0 km/h
62 05-05-2008 00:00:00 16.51 C 5.51 g/m*3 16.51 C 0 km/h
63 06-05-2008 00:00:00 18.36833 C 7.67 g/m*3 18.37 C 0 km/h
64 07-05-2008 00:00:00 19.48083 C 7 g/m*3 19.48 C 0 km/h
65 08-05-2008 00:00:00 19.40583 C 6.98 g/m*3 19.41 C 0 km/h
66 09-05-2008 00:00:00 20.20083 C 7.05 g/m*3 20.2 C 0 km/h
67 10-05-2008 00:00:00 21.22917 C 7.16 g/m*3 21.23 C 0 km/h
68 11-05-2008 00:00:00 21.15714 C 6.43 g/m*3 21.16 C 0 km/h
69 12-05-2008 00:00:00 21.02017 C 6.74 g/m*3 21.02 C 0 km/h
70 13-05-2008 00:00:00 21.3175 C 7.09 g/m*3 21.32 C 0 km/h
71 14-05-2008 00:00:00 21.27167 C 7.79 g/m*3 21.27 C 0 km/h
72 15-05-2008 00:00:00 18.93333 C 8.92 g/m*3 18.93 C 0 km/h
73 16-05-2008 00:00:00 18.3725 C 9.69 g/m*3 18.37 C 0 km/h
74 17-05-2008 00:00:00 17.11167 C 10.03 g/m*3 17.11 C 0 km/h
75 18-05-2008 00:00:00 14.09583 C 8.38 g/m*3 14.1 C 0 km/h
Sensor: Nr:Datum:Temp:Abs-Feuchte:Windchill:Wind:
Aussen-T/F 76 19-05-2008 00:00:00 14.61833 C 5.61 g/m*3 14.62 C 0 km/h
77 20-05-2008 00:00:00 15.59417 C 4.92 g/m*3 15.59 C 0 km/h
78 21-05-2008 00:00:00 16.93833 C 4.74 g/m*3 16.94 C 0 km/h
79 22-05-2008 00:00:00 18.32417 C 5.49 g/m*3 18.32 C 0 km/h
80 23-05-2008 00:00:00 19.045 C 6.46 g/m*3 19.05 C 0 km/h
81 24-05-2008 00:00:00 18.23 C 7.82 g/m*3 18.23 C 0 km/h
82 25-05-2008 00:00:00 21.65462 C 9.39 g/m*3 21.65 C 0 km/h
83 26-05-2008 00:00:00 21.2775 C 11.27 g/m*3 21.28 C 0 km/h
84 27-05-2008 00:00:00 22.17167 C 12.27 g/m*3 22.17 C 0 km/h
85 28-05-2008 00:00:00 23.79417 C 10.23 g/m*3 23.79 C 0 km/h
86 29-05-2008 00:00:00 23.08917 C 11.47 g/m*3 23.09 C 0 km/h
87 30-05-2008 00:00:00 20.37 C 13.32 g/m*3 20.37 C 0 km/h
88 31-05-2008 00:00:00 17.68917 C 12.05 g/m*3 17.69 C 0 km/h
89 01-06-2008 00:00:00 21.38917 C 11.64 g/m*3 21.39 C 0 km/h
90 02-06-2008 00:00:00 23.66833 C 12.72 g/m*3 23.67 C 0 km/h
91 03-06-2008 00:00:00 21.2825 C 11.09 g/m*3 21.28 C 0 km/h
92 04-06-2008 00:00:00 19.19833 C 11.48 g/m*3 19.2 C 0 km/h
93 05-06-2008 00:00:00 20.67731 C 12.57 g/m*3 20.68 C 0 km/h
94 06-06-2008 00:00:00 21.07333 C 10.91 g/m*3 21.07 C 0 km/h
95 07-06-2008 00:00:00 19.84417 C 10.51 g/m*3 19.84 C 0 km/h
96 08-06-2008 00:00:00 20.63167 C 10.52 g/m*3 20.63 C 0 km/h
97 09-06-2008 00:00:00 22.875 C 10.01 g/m*3 22.88 C 0 km/h
98 10-06-2008 00:00:00 23.51583 C 9.23 g/m*3 23.52 C 0 km/h
99 11-06-2008 00:00:00 18.4725 C 7.23 g/m*3 18.47 C 0 km/h
100 12-06-2008 00:00:00 12.7425 C 7.69 g/m*3 12.74 C 0 km/h
Sensor: Nr:Datum:Temp:Abs-Feuchte:Windchill:Wind:
Aussen-T/F 101 13-06-2008 00:00:00 13.67167 C 7.09 g/m*3 13.67 C 0 km/h
102 14-06-2008 00:00:00 13.75917 C 7.2 g/m*3 13.76 C 0 km/h
103 15-06-2008 00:00:00 13.75333 C 8.27 g/m*3 13.75 C 0 km/h
104 16-06-2008 00:00:00 16.2275 C 7.7 g/m*3 16.23 C 0 km/h
105 17-06-2008 00:00:00 17.34333 C 7.29 g/m*3 17.34 C 0 km/h
106 18-06-2008 00:00:00 20.30583 C 7.89 g/m*3 20.31 C 0 km/h
107 19-06-2008 00:00:00 20.67417 C 8.05 g/m*3 20.67 C 0 km/h
108 20-06-2008 00:00:00 18.32 C 8.63 g/m*3 18.32 C 0 km/h
109 21-06-2008 00:00:00 23.24706 C 9.11 g/m*3 23.25 C 0 km/h
110 22-06-2008 00:00:00 24.30833 C 11.76 g/m*3 24.31 C 0 km/h
111 23-06-2008 00:00:00 22.40417 C 8.41 g/m*3 22.4 C 0 km/h
112 24-06-2008 00:00:00 23.6325 C 8.33 g/m*3 23.63 C 0 km/h
113 25-06-2008 00:00:00 22.66833 C 12.11 g/m*3 22.67 C 0 km/h
114 26-06-2008 00:00:00 20.39833 C 8.44 g/m*3 20.4 C 0 km/h
115 27-06-2008 00:00:00 18.72167 C 8.67 g/m*3 18.72 C 0 km/h
116 28-06-2008 00:00:00 21.21 C 9.93 g/m*3 21.21 C 0 km/h
117 29-06-2008 00:00:00 22.68667 C 9.85 g/m*3 22.69 C 0 km/h
118 30-06-2008 00:00:00 22.95083 C 8.73 g/m*3 22.95 C 0 km/h
119 01-07-2008 00:00:00 24.35583 C 9.2 g/m*3 24.36 C 0 km/h
120 02-07-2008 00:00:00 26.47583 C 10.39 g/m*3 26.48 C 0 km/h
121 03-07-2008 00:00:00 20.18992 C 12.77 g/m*3 20.19 C 0 km/h
122 04-07-2008 00:00:00 19.38083 C 9.22 g/m*3 19.38 C 0 km/h
123 05-07-2008 00:00:00 21.0575 C 8.87 g/m*3 21.06 C 0 km/h
124 06-07-2008 00:00:00 21.2225 C 8.99 g/m*3 21.22 C 0 km/h
125 07-07-2008 00:00:00 18.24917 C 8.13 g/m*3 18.25 C 0 km/h
Sensor: Nr:Datum:Temp:Abs-Feuchte:Windchill:Wind:
Aussen-T/F 126 08-07-2008 00:00:00 17.2125 C 8.69 g/m*3 17.21 C 0 km/h
127 09-07-2008 00:00:00 17.0525 C 8.83 g/m*3 17.05 C 0 km/h
128 10-07-2008 00:00:00 22.32833 C 10.77 g/m*3 22.33 C 0 km/h
129 11-07-2008 00:00:00 20.48167 C 11.17 g/m*3 20.48 C 0 km/h
130 12-07-2008 00:00:00 17.645 C 9.92 g/m*3 17.65 C 0 km/h
131 13-07-2008 00:00:00 17.8375 C 8.02 g/m*3 17.84 C 0 km/h
132 14-07-2008 00:00:00 18.38 C 7.76 g/m*3 18.38 C 0 km/h
133 15-07-2008 00:00:00 19.61978 C 8.34 g/m*3 19.62 C 0 km/h
134 16-07-2008 00:00:00 20.38298 C 10.82 g/m*3 20.38 C 0 km/h
135 17-07-2008 00:00:00 17.22917 C 8.94 g/m*3 17.23 C 0 km/h
136 18-07-2008 00:00:00 16.58125 C 9.74 g/m*3 16.58 C 0 km/h
137 19-07-2008 00:00:00 19.61667 C 9.94 g/m*3 19.62 C 0 km/h
138 20-07-2008 00:00:00 15.48542 C 9.13 g/m*3 15.49 C 0 km/h
139 21-07-2008 00:00:00 12.62917 C 8.41 g/m*3 12.63 C 0 km/h
140 22-07-2008 00:00:00 14.56042 C 9.4 g/m*3 14.56 C 0 km/h
141 23-07-2008 00:00:00 18.94375 C 9.57 g/m*3 18.94 C 0 km/h
142 24-07-2008 00:00:00 22.13958 C 9.31 g/m*3 22.14 C 0 km/h
143 25-07-2008 00:00:00 24.55625 C 9.56 g/m*3 24.56 C 0 km/h
144 26-07-2008 00:00:00 23.54792 C 12.42 g/m*3 23.55 C 0 km/h
145 27-07-2008 00:00:00 23.20625 C 13.92 g/m*3 23.21 C 0 km/h
146 28-07-2008 00:00:00 25.10833 C 12.45 g/m*3 25.11 C 0 km/h
147 29-07-2008 00:00:00 24.49792 C 12.1 g/m*3 24.5 C 0 km/h
148 30-07-2008 00:00:00 23.67292 C 12.74 g/m*3 23.67 C 0 km/h
149 31-07-2008 00:00:00 24.69792 C 13.38 g/m*3 24.7 C 0 km/h
150 01-08-2008 00:00:00 24.97917 C 10.83 g/m*3 24.98 C 0 km/h
Sensor: Nr:Datum:Temp:Abs-Feuchte:Windchill:Wind:
Aussen-T/F 151 02-08-2008 00:00:00 21.29792 C 9.43 g/m*3 21.3 C 0 km/h
152 03-08-2008 00:00:00 23.42561 C 10.97 g/m*3 23.43 C 0 km/h
153 04-08-2008 00:00:00 21.85083 C 10.01 g/m*3 21.85 C 0 km/h
154 05-08-2008 00:00:00 20.3125 C 8.72 g/m*3 20.31 C 0 km/h
155 06-08-2008 00:00:00 24.05417 C 10.21 g/m*3 24.05 C 0 km/h
156 07-08-2008 00:00:00 24.29583 C 11.12 g/m*3 24.3 C 0 km/h
157 08-08-2008 00:00:00 18.50948 C 11.78 g/m*3 18.51 C 0 km/h
158 09-08-2008 00:00:00 19.32 C 9.06 g/m*3 19.32 C 0 km/h
159 10-08-2008 00:00:00 20.1 C 9.41 g/m*3 20.1 C 0 km/h
160 11-08-2008 00:00:00 20.59748 C 9.44 g/m*3 20.6 C 0 km/h
161 12-08-2008 00:00:00 18.91833 C 12.54 g/m*3 18.92 C 0 km/h
162 13-08-2008 00:00:00 18.3525 C 8.74 g/m*3 18.35 C 0 km/h
163 14-08-2008 00:00:00 19.14917 C 7.79 g/m*3 19.15 C 0 km/h
164 15-08-2008 00:00:00 18.3625 C 8.19 g/m*3 18.36 C 0 km/h
165 16-08-2008 00:00:00 18.89 C 8.44 g/m*3 18.89 C 0 km/h
166 17-08-2008 00:00:00 19.10252 C 8.4 g/m*3 19.1 C 0 km/h
167 18-08-2008 00:00:00 21.21 C 10.7 g/m*3 21.21 C 0 km/h
168 19-08-2008 00:00:00 20.7925 C 9.67 g/m*3 20.79 C 0 km/h
169 20-08-2008 00:00:00 18.82 C 9.37 g/m*3 18.82 C 0 km/h
170 21-08-2008 00:00:00 19.6375 C 8.99 g/m*3 19.64 C 0 km/h
171 22-08-2008 00:00:00 18.45333 C 11.1 g/m*3 18.45 C 0 km/h
172 23-08-2008 00:00:00 14.95083 C 9.15 g/m*3 14.95 C 0 km/h
173 24-08-2008 00:00:00 16.59333 C 8.67 g/m*3 16.59 C 0 km/h
174 25-08-2008 00:00:00 17.43583 C 10.93 g/m*3 17.44 C 0 km/h
175 26-08-2008 00:00:00 19.2725 C 10.13 g/m*3 19.27 C 0 km/h
Sensor: Nr:Datum:Temp:Abs-Feuchte:Windchill:Wind:
Aussen-T/F 176 27-08-2008 00:00:00 19.89833 C 10.62 g/m*3 19.9 C 0 km/h
177 28-08-2008 00:00:00 20.35417 C 9.37 g/m*3 20.35 C 0 km/h
178 29-08-2008 00:00:00 20.84454 C 9.74 g/m*3 20.84 C 0 km/h
179 30-08-2008 00:00:00 21.35167 C 10.94 g/m*3 21.35 C 0 km/h
180 31-08-2008 00:00:00 22.25917 C 10.49 g/m*3 22.26 C 0 km/h
181 01-09-2008 00:00:00 20.93917 C 10.36 g/m*3 20.94 C 0 km/h
182 02-09-2008 00:00:00 19.11333 C 9.31 g/m*3 19.11 C 0 km/h
183 03-09-2008 00:00:00 15.21083 C 10.42 g/m*3 15.21 C 0 km/h
184 04-09-2008 00:00:00 13.7025 C 7.94 g/m*3 13.7 C 0 km/h
185 05-09-2008 00:00:00 16.9775 C 10.5 g/m*3 16.98 C 0 km/h
186 06-09-2008 00:00:00 17.5625 C 11.38 g/m*3 17.56 C 0 km/h
187 07-09-2008 00:00:00 16.83583 C 9.34 g/m*3 16.84 C 0 km/h
188 08-09-2008 00:00:00 17.9741 C 8.43 g/m*3 17.97 C 0 km/h
189 09-09-2008 00:00:00 18.12014 C 9.04 g/m*3 18.12 C 0 km/h
190 10-09-2008 00:00:00 21.10243 C 10.72 g/m*3 21.1 C 0 km/h
191 11-09-2008 00:00:00 19.94479 C 12.52 g/m*3 19.94 C 0 km/h
192 12-09-2008 00:00:00 16.69236 C 12.91 g/m*3 16.69 C 0 km/h
193 13-09-2008 00:00:00 12.63937 C 10.07 g/m*3 12.64 C 0 km/h
194 14-09-2008 00:00:00 11.66215 C 6.19 g/m*3 11.66 C 0 km/h
195 15-09-2008 00:00:00 10.27153 C 7.08 g/m*3 10.27 C 0 km/h
196 16-09-2008 00:00:00 11.32014 C 7.11 g/m*3 11.32 C 0 km/h
197 17-09-2008 00:00:00 11.34948 C 5.77 g/m*3 11.35 C 0 km/h
198 18-09-2008 00:00:00 10.63264 C 5.3 g/m*3 10.63 C 0 km/h
199 19-09-2008 00:00:00 10.48333 C 6.14 g/m*3 10.48 C 0 km/h
200 20-09-2008 00:00:00 11.00556 C 6.26 g/m*3 11.01 C 0 km/h
Sensor: Nr:Datum:Temp:Abs-Feuchte:Windchill:Wind:
Aussen-T/F 201 21-09-2008 00:00:00 11.67222 C 6.89 g/m*3 11.67 C 0 km/h
202 22-09-2008 00:00:00 12.57108 C 7.54 g/m*3 12.57 C 0 km/h
203 23-09-2008 00:00:00 12.21111 C 8.35 g/m*3 12.21 C 0 km/h
204 24-09-2008 00:00:00 13.30799 C 9.32 g/m*3 13.31 C 0 km/h
205 25-09-2008 00:00:00 12.56736 C 7.77 g/m*3 12.57 C 0 km/h
206 26-09-2008 00:00:00 12.00521 C 7.09 g/m*3 12.01 C 0 km/h
207 27-09-2008 00:00:00 11.93693 C 7.15 g/m*3 11.94 C 0 km/h
208 28-09-2008 00:00:00 11.96493 C 7.21 g/m*3 11.96 C 0 km/h
209 29-09-2008 00:00:00 11.47396 C 7.33 g/m*3 11.47 C 0 km/h
210 30-09-2008 00:00:00 10.38611 C 7.67 g/m*3 10.39 C 0 km/h
211 01-10-2008 00:00:00 13.07222 C 8.43 g/m*3 13.07 C 0 km/h
212 02-10-2008 00:00:00 10.70244 C 6.41 g/m*3 10.7 C 0 km/h
213 03-10-2008 00:00:00 8.94063 C 6.04 g/m*3 8.94 C 0 km/h
214 04-10-2008 00:00:00 9.76632 C 5.66 g/m*3 9.77 C 0 km/h
215 05-10-2008 00:00:00 11.69062 C 6.1 g/m*3 11.69 C 0 km/h
216 06-10-2008 00:00:00 14.79306 C 10.16 g/m*3 14.79 C 0 km/h
217 07-10-2008 00:00:00 15.17875 C 10.24 g/m*3 15.18 C 0 km/h
218 08-10-2008 00:00:00 13.26389 C 10.6 g/m*3 13.26 C 0 km/h
219 09-10-2008 00:00:00 13.20937 C 8.82 g/m*3 13.21 C 0 km/h
220 10-10-2008 00:00:00 13.01806 C 8.66 g/m*3 13.02 C 0 km/h
221 11-10-2008 00:00:00 13.2125 C 9 g/m*3 13.21 C 0 km/h
222 12-10-2008 00:00:00 15.40729 C 9.68 g/m*3 15.41 C 0 km/h
223 13-10-2008 00:00:00 14.40976 C 9.47 g/m*3 14.41 C 0 km/h
224 14-10-2008 00:00:00 15.63438 C 9.35 g/m*3 15.63 C 0 km/h
225 15-10-2008 00:00:00 13.57361 C 8.88 g/m*3 13.57 C 0 km/h
Sensor: Nr:Datum:Temp:Abs-Feuchte:Windchill:Wind:
Aussen-T/F 226 16-10-2008 00:00:00 11.59444 C 8.43 g/m*3 11.59 C 0 km/h
227 17-10-2008 00:00:00 8.00313 C 6.15 g/m*3 8 C 0 km/h
228 18-10-2008 00:00:00 7.10488 C 5.92 g/m*3 7.1 C 0 km/h
229 19-10-2008 00:00:00 8.10521 C 6.25 g/m*3 8.11 C 0 km/h
230 20-10-2008 00:00:00 9.83646 C 7.21 g/m*3 9.84 C 0 km/h
231 21-10-2008 00:00:00 13.12986 C 9.32 g/m*3 13.13 C 0 km/h
232 22-10-2008 00:00:00 9.36528 C 7.49 g/m*3 9.37 C 0 km/h
233 23-10-2008 00:00:00 9.2115 C 6.5 g/m*3 9.21 C 0 km/h
234 24-10-2008 00:00:00 7.4434 C 6.07 g/m*3 7.44 C 0 km/h
235 25-10-2008 00:00:00 10.48151 C 7.39 g/m*3 10.48 C 0 km/h
236 26-10-2008 00:00:00 10.725 C 6.55 g/m*3 10.73 C 0 km/h
237 27-10-2008 00:00:00 10.21724 C 7.98 g/m*3 10.22 C 0 km/h
238 28-10-2008 00:00:00 6.92456 C 6.29 g/m*3 6.92 C 0 km/h
239 29-10-2008 00:00:00 5.45 C 5.63 g/m*3 5.45 C 0 km/h
240 30-10-2008 00:00:00 4.78947 C 6 g/m*3 4.79 C 0 km/h
241 31-10-2008 00:00:00 5.97414 C 6.34 g/m*3 5.97 C 0 km/h
242 01-11-2008 00:00:00 7.97414 C 7.15 g/m*3 7.97 C 0 km/h
243 02-11-2008 00:00:00 9.98772 C 7.86 g/m*3 9.99 C 0 km/h
244 03-11-2008 00:00:00 9.82241 C 7.83 g/m*3 9.82 C 0 km/h
245 04-11-2008 00:00:00 9.00351 C 7.82 g/m*3 9 C 0 km/h
246 05-11-2008 00:00:00 9.79828 C 7.68 g/m*3 9.8 C 0 km/h
247 06-11-2008 00:00:00 10.54483 C 7.37 g/m*3 10.54 C 0 km/h
248 07-11-2008 00:00:00 10.79123 C 7.22 g/m*3 10.79 C 0 km/h
249 08-11-2008 00:00:00 8.24828 C 6.77 g/m*3 8.25 C 0 km/h
250 09-11-2008 00:00:00 8.89583 C 7.31 g/m*3 8.9 C 0 km/h
Sensor: Nr:Datum:Temp:Abs-Feuchte:Windchill:Wind:
Aussen-T/F 251 10-11-2008 00:00:00 13.98833 C 7.91 g/m*3 13.99 C 0 km/h
252 11-11-2008 00:00:00 12.73917 C 6.46 g/m*3 12.74 C 0 km/h
253 12-11-2008 00:00:00 8.5175 C 6.56 g/m*3 8.52 C 0 km/h
254 13-11-2008 00:00:00 6.40667 C 6.06 g/m*3 6.41 C 0 km/h
255 14-11-2008 00:00:00 5.60833 C 5.47 g/m*3 5.61 C 0 km/h
256 15-11-2008 00:00:00 9.82083 C 7.04 g/m*3 9.82 C 0 km/h
257 16-11-2008 00:00:00 9.9375 C 7.83 g/m*3 9.94 C 0 km/h
258 17-11-2008 00:00:00 4.03167 C 5.46 g/m*3 4.03 C 0 km/h
259 18-11-2008 00:00:00 4.76417 C 5.59 g/m*3 4.76 C 0 km/h
260 19-11-2008 00:00:00 7.7775 C 6.09 g/m*3 7.78 C 0 km/h
261 20-11-2008 00:00:00 9.54 C 6.58 g/m*3 9.54 C 0 km/h
262 21-11-2008 00:00:00 5.21083 C 5.22 g/m*3 5.21 C 0 km/h
263 22-11-2008 00:00:00 1.08571 C 3.81 g/m*3 1.09 C 0 km/h
264 23-11-2008 00:00:00 0.81333 C 4.11 g/m*3 0.81 C 0 km/h
265 24-11-2008 00:00:00 1.92667 C 4.67 g/m*3 1.93 C 0 km/h
266 25-11-2008 00:00:00 0.79667 C 4.51 g/m*3 0.8 C 0 km/h
267 26-11-2008 00:00:00 2.38333 C 4.91 g/m*3 2.38 C 0 km/h
268 27-11-2008 00:00:00 3.435 C 4.58 g/m*3 3.44 C 0 km/h
269 28-11-2008 00:00:00 0.47667 C 3.78 g/m*3 0.48 C 0 km/h
270 29-11-2008 00:00:00 0.98 C 4.13 g/m*3 0.98 C 0 km/h
271 30-11-2008 00:00:00 1.12 C 4.72 g/m*3 1.12 C 0 km/h
272 01-12-2008 00:00:00 0.30417 C 4.54 g/m*3 0.3 C 0 km/h
273 02-12-2008 00:00:00 2.80917 C 4.97 g/m*3 2.81 C 0 km/h
274 03-12-2008 00:00:00 1.785 C 4.91 g/m*3 1.79 C 0 km/h
275 04-12-2008 00:00:00 1.92353 C 5.05 g/m*3 1.92 C 0 km/h
Sensor: Nr:Datum:Temp:Abs-Feuchte:Windchill:Wind:
Aussen-T/F 276 05-12-2008 00:00:00 5.36 C 6.01 g/m*3 5.36 C 0 km/h
277 06-12-2008 00:00:00 4.73 C 5.89 g/m*3 4.73 C 0 km/h
278 07-12-2008 00:00:00 3.85333 C 5.78 g/m*3 3.85 C 0 km/h
279 08-12-2008 00:00:00 0.26917 C 4.58 g/m*3 0.27 C 0 km/h
280 09-12-2008 00:00:00 0.56667 C 4.36 g/m*3 0.57 C 0 km/h
281 10-12-2008 00:00:00 1.97667 C 5.17 g/m*3 1.98 C 0 km/h
282 11-12-2008 00:00:00 1.4775 C 4.54 g/m*3 1.48 C 0 km/h
283 12-12-2008 00:00:00 -0.23583 C 3.8 g/m*3 -0.24 C 0 km/h
284 13-12-2008 00:00:00 -0.26167 C 3.56 g/m*3 -0.26 C 0 km/h
285 14-12-2008 00:00:00 0.28083 C 4.24 g/m*3 0.28 C 0 km/h
286 15-12-2008 00:00:00 -0.1075 C 4.53 g/m*3 -0.11 C 0 km/h
287 16-12-2008 00:00:00 0.42521 C 4.59 g/m*3 0.43 C 0 km/h
288 17-12-2008 00:00:00 -0.0375 C 4.31 g/m*3 -0.04 C 0 km/h
289 18-12-2008 00:00:00 2.15083 C 5.01 g/m*3 2.15 C 0 km/h
290 19-12-2008 00:00:00 4.22333 C 5.23 g/m*3 4.22 C 0 km/h
291 20-12-2008 00:00:00 6.45667 C 6.48 g/m*3 6.46 C 0 km/h
292 21-12-2008 00:00:00 7.94917 C 6.81 g/m*3 7.95 C 0 km/h
293 22-12-2008 00:00:00 8.47167 C 6.7 g/m*3 8.47 C 0 km/h
294 23-12-2008 00:00:00 6.21417 C 5.86 g/m*3 6.21 C 0 km/h
295 24-12-2008 00:00:00 4.55833 C 5.62 g/m*3 4.56 C 0 km/h
296 25-12-2008 00:00:00 4.40252 C 4.56 g/m*3 4.4 C 0 km/h
297 26-12-2008 00:00:00 -1.1875 C 2.6 g/m*3 -1.19 C 0 km/h
298 27-12-2008 00:00:00 -1.85667 C 2.56 g/m*3 -1.86 C 0 km/h
299 28-12-2008 00:00:00 -3.02917 C 2.53 g/m*3 -3.03 C 0 km/h
300 29-12-2008 00:00:00 -5.49833 C 2.6 g/m*3 -5.5 C 0 km/h
Sensor: Nr:Datum:Temp:Abs-Feuchte:Windchill:Wind:
Aussen-T/F 301 30-12-2008 00:00:00 -6.21833 C 2.53 g/m*3 -6.22 C 0 km/h
302 31-12-2008 00:00:00 -4.32583 C 2.92 g/m*3 -4.33 C 0 km/h
303 01-01-2009 00:00:00 -3.46417 C 2.96 g/m*3 -3.46 C 0 km/h
304 02-01-2009 00:00:00 -2.03917 C 3.39 g/m*3 -2.04 C 0 km/h
305 03-01-2009 00:00:00 -3.57 C 2.96 g/m*3 -3.57 C 0 km/h
306 04-01-2009 00:00:00 -1.06833 C 2.96 g/m*3 -1.07 C 0 km/h
307 05-01-2009 00:00:00 -1.23866 C 3.28 g/m*3 -1.24 C 0 km/h
308 06-01-2009 00:00:00 -6.97 C 1.26 g/m*3 -6.97 C 0 km/h
309 07-01-2009 00:00:00 -10.99167 C 1.39 g/m*3 -10.99 C 0 km/h
310 08-01-2009 00:00:00 -6.02083 C 2.27 g/m*3 -6.02 C 0 km/h
311 09-01-2009 00:00:00 -11.165 C 1.54 g/m*3 -11.17 C 0 km/h
312 10-01-2009 00:00:00 -11.3175 C 1.53 g/m*3 -11.32 C 0 km/h
313 11-01-2009 00:00:00 -8.9975 C 1.92 g/m*3 -9 C 0 km/h
314 12-01-2009 00:00:00 -7.30417 C 2.15 g/m*3 -7.3 C 0 km/h
315 13-01-2009 00:00:00 -0.17833 C 3.29 g/m*3 -0.18 C 0 km/h
316 14-01-2009 00:00:00 -0.15917 C 4.05 g/m*3 -0.16 C 0 km/h
317 15-01-2009 00:00:00 0.77417 C 4.28 g/m*3 0.77 C 0 km/h
318 16-01-2009 00:00:00 0.69833 C 3.9 g/m*3 0.7 C 0 km/h
319 17-01-2009 00:00:00 2.97833 C 4.9 g/m*3 2.98 C 0 km/h
320 18-01-2009 00:00:00 4.50924 C 5.1 g/m*3 4.51 C 0 km/h
321 19-01-2009 00:00:00 5.4575 C 5.21 g/m*3 5.46 C 0 km/h
322 20-01-2009 00:00:00 3.6475 C 4.19 g/m*3 3.65 C 0 km/h
323 21-01-2009 00:00:00 0.32 C 4.11 g/m*3 0.32 C 0 km/h
324 22-01-2009 00:00:00 2.825 C 4.02 g/m*3 2.83 C 0 km/h
325 23-01-2009 00:00:00 4.345 C 5.29 g/m*3 4.35 C 0 km/h
Sensor: Nr:Datum:Temp:Abs-Feuchte:Windchill:Wind:
Aussen-T/F 326 24-01-2009 00:00:00 3.13 C 4.29 g/m*3 3.13 C 0 km/h
327 25-01-2009 00:00:00 0.15167 C 4.08 g/m*3 0.15 C 0 km/h
328 26-01-2009 00:00:00 -2.16917 C 3.69 g/m*3 -2.17 C 0 km/h
329 27-01-2009 00:00:00 -0.93167 C 3.93 g/m*3 -0.93 C 0 km/h
330 28-01-2009 00:00:00 0.50833 C 4.02 g/m*3 0.51 C 0 km/h
331 29-01-2009 00:00:00 1.15667 C 3.12 g/m*3 1.16 C 0 km/h
332 30-01-2009 00:00:00 -1.50917 C 3.06 g/m*3 -1.51 C 0 km/h
333 31-01-2009 00:00:00 0.06303 C 2.59 g/m*3 0.06 C 0 km/h
334 01-02-2009 00:00:00 -0.11167 C 2.24 g/m*3 -0.11 C 0 km/h
335 02-02-2009 00:00:00 1.085 C 2.84 g/m*3 1.09 C 0 km/h
336 03-02-2009 00:00:00 0.63833 C 3.81 g/m*3 0.64 C 0 km/h
337 04-02-2009 00:00:00 3.0025 C 4.61 g/m*3 3 C 0 km/h
338 05-02-2009 00:00:00 3.2325 C 4.69 g/m*3 3.23 C 0 km/h
339 06-02-2009 00:00:00 4.3 C 5.03 g/m*3 4.3 C 0 km/h
340 07-02-2009 00:00:00 4.03417 C 5.27 g/m*3 4.03 C 0 km/h
341 08-02-2009 00:00:00 2.6525 C 3.3 g/m*3 2.65 C 0 km/h
342 09-02-2009 00:00:00 2.3775 C 3.79 g/m*3 2.38 C 0 km/h
343 10-02-2009 00:00:00 4.155 C 5.17 g/m*3 4.16 C 0 km/h
344 11-02-2009 00:00:00 2.90333 C 3.62 g/m*3 2.9 C 0 km/h
345 12-02-2009 00:00:00 0.68908 C 3.9 g/m*3 0.69 C 0 km/h
346 13-02-2009 00:00:00 0.51333 C 4.05 g/m*3 0.51 C 0 km/h
347 14-02-2009 00:00:00 0.46083 C 3.41 g/m*3 0.46 C 0 km/h
348 15-02-2009 00:00:00 -1.63583 C 2.82 g/m*3 -1.64 C 0 km/h
349 16-02-2009 00:00:00 1.96417 C 4.68 g/m*3 1.96 C 0 km/h
350 17-02-2009 00:00:00 3.77167 C 5.13 g/m*3 3.77 C 0 km/h
Sensor: Nr:Datum:Temp:Abs-Feuchte:Windchill:Wind:
Aussen-T/F 351 18-02-2009 00:00:00 -1.62667 C 2.39 g/m*3 -1.63 C 0 km/h
352 19-02-2009 00:00:00 1.01417 C 2.7 g/m*3 1.01 C 0 km/h
353 20-02-2009 00:00:00 3.41917 C 5.01 g/m*3 3.42 C 0 km/h
354 21-02-2009 00:00:00 4.72083 C 4.87 g/m*3 4.72 C 0 km/h
355 22-02-2009 00:00:00 5.24667 C 5.76 g/m*3 5.25 C 0 km/h
356 23-02-2009 00:00:00 5.50083 C 4.72 g/m*3 5.5 C 0 km/h
357 24-02-2009 00:00:00 4.8325 C 4.1 g/m*3 4.83 C 0 km/h
358 25-02-2009 00:00:00 3.34286 C 4 g/m*3 3.34 C 0 km/h
359 26-02-2009 00:00:00 6.7377 C 4.3 g/m*3 6.74 C 0 km/h
360 27-02-2009 00:00:00 7.10417 C 5.5 g/m*3 7.1 C 0 km/h
361 28-02-2009 00:00:00 10.0375 C 5.89 g/m*3 10.04 C 0 km/h
362 01-03-2009 00:00:00 9.95 C 5.76 g/m*3 9.95 C 0 km/h
363 02-03-2009 00:00:00 7.98 C 5.85 g/m*3 7.98 C 0 km/h
364 03-03-2009 00:00:00 5.05583 C 3.94 g/m*3 5.06 C 0 km/h
365 04-03-2009 00:00:00 7.27917 C 3.96 g/m*3 7.28 C 0 km/h
366 05-03-2009 00:00:00 4.42917 C 5.35 g/m*3 4.43 C 0 km/h
367 06-03-2009 00:00:00 3.82417 C 5.35 g/m*3 3.82 C 0 km/h
368 07-03-2009 00:00:00 5.72167 C 3.85 g/m*3 5.72 C 0 km/h
369 08-03-2009 00:00:00 7.50833 C 5.49 g/m*3 7.51 C 0 km/h
370 09-03-2009 00:00:00 5.1521 C 4.17 g/m*3 5.15 C 0 km/h
371 10-03-2009 00:00:00 5.4275 C 4.82 g/m*3 5.43 C 0 km/h
372 11-03-2009 00:00:00 5.60417 C 4.35 g/m*3 5.6 C 0 km/h
373 12-03-2009 00:00:00 5.67083 C 5.13 g/m*3 5.67 C 0 km/h
374 13-03-2009 00:00:00 8.68167 C 5.63 g/m*3 8.68 C 0 km/h
375 14-03-2009 00:00:00 8.925 C 5.68 g/m*3 8.93 C 0 km/h
Sensor: Nr:Datum:Temp:Abs-Feuchte:Windchill:Wind:
Aussen-T/F 376 15-03-2009 00:00:00 9.41667 C 4.91 g/m*3 9.42 C 0 km/h
377 16-03-2009 00:00:00 8.23417 C 5.83 g/m*3 8.23 C 0 km/h
378 17-03-2009 00:00:00 7.73833 C 5.15 g/m*3 7.74 C 0 km/h
379 18-03-2009 00:00:00 5.82417 C 3.93 g/m*3 5.82 C 0 km/h
380 19-03-2009 00:00:00 5.41917 C 3.04 g/m*3 5.42 C 0 km/h
381 20-03-2009 00:00:00 4.59917 C 2.69 g/m*3 4.6 C 0 km/h
382 21-03-2009 00:00:00 5.07 C 2.81 g/m*3 5.07 C 0 km/h
383 22-03-2009 00:00:00 5.16639 C 3.79 g/m*3 5.17 C 0 km/h
384 23-03-2009 00:00:00 7.82917 C 4.91 g/m*3 7.83 C 0 km/h
385 24-03-2009 00:00:00 3.67333 C 4.24 g/m*3 3.67 C 0 km/h
386 25-03-2009 00:00:00 3.18417 C 4.69 g/m*3 3.18 C 0 km/h
387 26-03-2009 00:00:00 6.40083 C 5.48 g/m*3 6.4 C 0 km/h
388 27-03-2009 00:00:00 7.28333 C 5.31 g/m*3 7.28 C 0 km/h
389 28-03-2009 00:00:00 6.97583 C 5.39 g/m*3 6.98 C 0 km/h
390 29-03-2009 00:00:00 6.18435 C 4.96 g/m*3 6.18 C 0 km/h
391 30-03-2009 00:00:00 6.41833 C 4.78 g/m*3 6.42 C 0 km/h
392 31-03-2009 00:00:00 8.3325 C 4.49 g/m*3 8.33 C 0 km/h
393 01-04-2009 00:00:00 10.89833 C 4.57 g/m*3 10.9 C 0 km/h
394 02-04-2009 00:00:00 15.335 C 5.18 g/m*3 15.34 C 0 km/h
395 03-04-2009 00:00:00 15.87143 C 6.71 g/m*3 15.87 C 0 km/h
396 04-04-2009 00:00:00 16.68333 C 7.32 g/m*3 16.68 C 0 km/h
397 05-04-2009 00:00:00 14.9675 C 6.93 g/m*3 14.97 C 0 km/h
398 06-04-2009 00:00:00 14.72833 C 6.98 g/m*3 14.73 C 0 km/h
399 07-04-2009 00:00:00 14.57333 C 7.41 g/m*3 14.57 C 0 km/h
400 08-04-2009 00:00:00 14.20167 C 6.07 g/m*3 14.2 C 0 km/h
Sensor: Nr:Datum:Temp:Abs-Feuchte:Windchill:Wind:
Aussen-T/F 401 09-04-2009 00:00:00 16.28067 C 7.49 g/m*3 16.28 C 0 km/h
402 10-04-2009 00:00:00 18.55372 C 7.45 g/m*3 18.55 C 0 km/h
403 11-04-2009 00:00:00 17.3525 C 7.29 g/m*3 17.35 C 0 km/h
404 12-04-2009 00:00:00 16.79 C 8.39 g/m*3 16.79 C 0 km/h
405 13-04-2009 00:00:00 15.65167 C 9.22 g/m*3 15.65 C 0 km/h
406 14-04-2009 00:00:00 16.16167 C 8.27 g/m*3 16.16 C 0 km/h
407 15-04-2009 00:00:00 16.94202 C 7.01 g/m*3 16.94 C 0 km/h
408 16-04-2009 00:00:00 14.94583 C 6.79 g/m*3 14.95 C 0 km/h
409 17-04-2009 00:00:00 10.0825 C 8.69 g/m*3 10.08 C 0 km/h
410 18-04-2009 00:00:00 9.84 C 8.53 g/m*3 9.84 C 0 km/h
411 19-04-2009 00:00:00 14.95667 C 7.61 g/m*3 14.96 C 0 km/h
412 20-04-2009 00:00:00 15.16917 C 7.23 g/m*3 15.17 C 0 km/h
413 21-04-2009 00:00:00 15.74583 C 6.35 g/m*3 15.75 C 0 km/h
414 22-04-2009 00:00:00 13.68833 C 5.48 g/m*3 13.69 C 0 km/h
415 23-04-2009 00:00:00 11.645 C 5.16 g/m*3 11.65 C 0 km/h
416 24-04-2009 00:00:00 14.11333 C 5.96 g/m*3 14.11 C 0 km/h
417 25-04-2009 00:00:00 14.64833 C 7.16 g/m*3 14.65 C 0 km/h
418 26-04-2009 00:00:00 18.35 C 8.19 g/m*3 18.35 C 0 km/h
419 27-04-2009 00:00:00 14.89496 C 7.27 g/m*3 14.89 C 0 km/h
420 28-04-2009 00:00:00 11.07833 C 8.01 g/m*3 11.08 C 0 km/h
421 29-04-2009 00:00:00 11.9025 C 7.14 g/m*3 11.9 C 0 km/h
422 30-04-2009 00:00:00 12.85833 C 7.53 g/m*3 12.86 C 0 km/h
423 01-05-2009 00:00:00 16.25583 C 8.09 g/m*3 16.26 C 0 km/h
424 02-05-2009 00:00:00 17.60167 C 7.7 g/m*3 17.6 C 0 km/h
425 03-05-2009 00:00:00 14.58333 C 7.12 g/m*3 14.58 C 0 km/h
Sensor: Nr:Datum:Temp:Abs-Feuchte:Windchill:Wind:
Aussen-T/F 426 04-05-2009 00:00:00 11.88333 C 4.53 g/m*3 11.88 C 0 km/h
427 05-05-2009 00:00:00 10.50917 C 6.68 g/m*3 10.51 C 0 km/h
428 06-05-2009 00:00:00 13.85625 C 7.25 g/m*3 13.86 C 0 km/h
429 07-05-2009 00:00:00 16.47708 C 7.43 g/m*3 16.48 C 0 km/h
430 08-05-2009 00:00:00 16.58021 C 8.46 g/m*3 16.58 C 0 km/h
431 09-05-2009 00:00:00 14.3875 C 8.01 g/m*3 14.39 C 0 km/h
432 10-05-2009 00:00:00 17.72083 C 9.72 g/m*3 17.72 C 0 km/h
433 11-05-2009 00:00:00 13.57188 C 11.06 g/m*3 13.57 C 0 km/h
434 12-05-2009 00:00:00 11.83333 C 9.17 g/m*3 11.83 C 0 km/h
435 13-05-2009 00:00:00 15.51771 C 8.96 g/m*3 15.52 C 0 km/h
436 14-05-2009 00:00:00 16.00104 C 9.44 g/m*3 16 C 0 km/h
437 15-05-2009 00:00:00 15.12255 C 10.34 g/m*3 15.12 C 0 km/h
438 16-05-2009 00:00:00 13.80333 C 7.38 g/m*3 13.8 C 0 km/h
439 17-05-2009 00:00:00 17.02083 C 7.92 g/m*3 17.02 C 0 km/h
440 18-05-2009 00:00:00 16.95083 C 6.63 g/m*3 16.95 C 0 km/h
441 19-05-2009 00:00:00 16.49333 C 7.85 g/m*3 16.49 C 0 km/h
442 20-05-2009 00:00:00 18.70167 C 9.55 g/m*3 18.7 C 0 km/h
443 21-05-2009 00:00:00 19.21167 C 10.72 g/m*3 19.21 C 0 km/h
444 22-05-2009 00:00:00 17.97917 C 7.45 g/m*3 17.98 C 0 km/h
445 23-05-2009 00:00:00 18.72083 C 7.4 g/m*3 18.72 C 0 km/h
446 24-05-2009 00:00:00 22.53417 C 9.1 g/m*3 22.53 C 0 km/h
447 25-05-2009 00:00:00 23.49833 C 10.6 g/m*3 23.5 C 0 km/h
448 26-05-2009 00:00:00 19.86583 C 9.97 g/m*3 19.87 C 0 km/h
449 27-05-2009 00:00:00 14.4425 C 6.18 g/m*3 14.44 C 0 km/h
450 28-05-2009 00:00:00 15.5325 C 8.21 g/m*3 15.53 C 0 km/h
Sensor: Nr:Datum:Temp:Abs-Feuchte:Windchill:Wind:
Aussen-T/F 451 29-05-2009 00:00:00 17.81765 C 6.76 g/m*3 17.82 C 0 km/h
452 30-05-2009 00:00:00 18.43417 C 6.45 g/m*3 18.43 C 0 km/h
453 31-05-2009 00:00:00 20.3075 C 7.55 g/m*3 20.31 C 0 km/h
454 01-06-2009 00:00:00 19.42541 C 9.1 g/m*3 19.43 C 0 km/h
455 02-06-2009 00:00:00 19.91917 C 8.16 g/m*3 19.92 C 0 km/h
456 03-06-2009 00:00:00 16.3775 C 5.31 g/m*3 16.38 C 0 km/h
457 04-06-2009 00:00:00 13.435 C 4.59 g/m*3 13.44 C 0 km/h
458 05-06-2009 00:00:00 13.4075 C 5 g/m*3 13.41 C 0 km/h
459 06-06-2009 00:00:00 9.18333 C 7.41 g/m*3 9.18 C 0 km/h
460 07-06-2009 00:00:00 13.71083 C 8.43 g/m*3 13.71 C 0 km/h
461 08-06-2009 00:00:00 16.58667 C 7.38 g/m*3 16.59 C 0 km/h
462 09-06-2009 00:00:00 17.9275 C 9.37 g/m*3 17.93 C 0 km/h
463 10-06-2009 00:00:00 17.24454 C 8.99 g/m*3 17.24 C 0 km/h
464 11-06-2009 00:00:00 14.60417 C 9.26 g/m*3 14.6 C 0 km/h
465 12-06-2009 00:00:00 15.915 C 7.28 g/m*3 15.92 C 0 km/h
466 13-06-2009 00:00:00 18.29417 C 7.64 g/m*3 18.29 C 0 km/h
467 14-06-2009 00:00:00 20.3875 C 10.19 g/m*3 20.39 C 0 km/h
468 15-06-2009 00:00:00 16.76083 C 12.71 g/m*3 16.76 C 0 km/h
469 16-06-2009 00:00:00 16.58083 C 9.69 g/m*3 16.58 C 0 km/h
470 17-06-2009 00:00:00 19.89 C 9.38 g/m*3 19.89 C 0 km/h
471 18-06-2009 00:00:00 19.45417 C 10.3 g/m*3 19.45 C 0 km/h
472 19-06-2009 00:00:00 18.45583 C 7.96 g/m*3 18.46 C 0 km/h
473 20-06-2009 00:00:00 13.84583 C 7.89 g/m*3 13.85 C 0 km/h
474 21-06-2009 00:00:00 13.40167 C 8.61 g/m*3 13.4 C 0 km/h
475 22-06-2009 00:00:00 15.23697 C 7.62 g/m*3 15.24 C 0 km/h
Sensor: Nr:Datum:Temp:Abs-Feuchte:Windchill:Wind:
Aussen-T/F 476 23-06-2009 00:00:00 18.58583 C 7.92 g/m*3 18.59 C 0 km/h
477 24-06-2009 00:00:00 22.29167 C 7.85 g/m*3 22.29 C 0 km/h
478 25-06-2009 00:00:00 24.10583 C 9.67 g/m*3 24.11 C 0 km/h
479 26-06-2009 00:00:00 24.31083 C 10.7 g/m*3 24.31 C 0 km/h
480 27-06-2009 00:00:00 22.1625 C 12.54 g/m*3 22.16 C 0 km/h
481 28-06-2009 00:00:00 25.04417 C 11.78 g/m*3 25.04 C 0 km/h
482 29-06-2009 00:00:00 24.71583 C 12 g/m*3 24.72 C 0 km/h
483 30-06-2009 00:00:00 22.55083 C 13.98 g/m*3 22.55 C 0 km/h
484 01-07-2009 00:00:00 23.6175 C 13.73 g/m*3 23.62 C 0 km/h
485 02-07-2009 00:00:00 25.95917 C 12.87 g/m*3 25.96 C 0 km/h
486 03-07-2009 00:00:00 23.36083 C 13.72 g/m*3 23.36 C 0 km/h
487 04-07-2009 00:00:00 24.17479 C 11.83 g/m*3 24.17 C 0 km/h
488 05-07-2009 00:00:00 23.89917 C 11.07 g/m*3 23.9 C 0 km/h
489 06-07-2009 00:00:00 21.82333 C 11.98 g/m*3 21.82 C 0 km/h
490 07-07-2009 00:00:00 18.7625 C 10.11 g/m*3 18.76 C 0 km/h
491 08-07-2009 00:00:00 16.39 C 9.61 g/m*3 16.39 C 0 km/h
492 09-07-2009 00:00:00 16.38583 C 8.58 g/m*3 16.39 C 0 km/h
493 10-07-2009 00:00:00 15.17083 C 7.78 g/m*3 15.17 C 0 km/h
494 11-07-2009 00:00:00 17.55667 C 8.2 g/m*3 17.56 C 0 km/h
495 12-07-2009 00:00:00 19.3525 C 10.57 g/m*3 19.35 C 0 km/h
496 13-07-2009 00:00:00 21.76917 C 12.23 g/m*3 21.77 C 0 km/h
497 14-07-2009 00:00:00 23.4 C 13.46 g/m*3 23.4 C 0 km/h
498 15-07-2009 00:00:00 24.0475 C 10.2 g/m*3 24.05 C 0 km/h
499 16-07-2009 00:00:00 23.37479 C 9.98 g/m*3 23.37 C 0 km/h
500 17-07-2009 00:00:00 20.90917 C 9.78 g/m*3 20.91 C 0 km/h
Sensor: Nr:Datum:Temp:Abs-Feuchte:Windchill:Wind:
Aussen-T/F 501 18-07-2009 00:00:00 17.575 C 8.46 g/m*3 17.58 C 0 km/h
502 19-07-2009 00:00:00 17.92167 C 8.71 g/m*3 17.92 C 0 km/h
503 20-07-2009 00:00:00 19.82583 C 7.87 g/m*3 19.83 C 0 km/h
504 21-07-2009 00:00:00 23.22833 C 11.03 g/m*3 23.23 C 0 km/h
505 22-07-2009 00:00:00 25.10583 C 12 g/m*3 25.11 C 0 km/h
506 23-07-2009 00:00:00 22.65417 C 12.31 g/m*3 22.65 C 0 km/h
507 24-07-2009 00:00:00 20.33167 C 9.89 g/m*3 20.33 C 0 km/h
508 25-07-2009 00:00:00 18.03083 C 9.21 g/m*3 18.03 C 0 km/h
509 26-07-2009 00:00:00 19.94833 C 9.75 g/m*3 19.95 C 0 km/h
510 27-07-2009 00:00:00 20.60667 C 10.4 g/m*3 20.61 C 0 km/h
511 28-07-2009 00:00:00 20.41513 C 8.48 g/m*3 20.42 C 0 km/h
512 29-07-2009 00:00:00 21.77833 C 9.2 g/m*3 21.78 C 0 km/h
513 30-07-2009 00:00:00 21.10583 C 8.72 g/m*3 21.11 C 0 km/h
514 31-07-2009 00:00:00 20.32583 C 7.51 g/m*3 20.33 C 0 km/h
515 01-08-2009 00:00:00 22.455 C 8.67 g/m*3 22.46 C 0 km/h
516 02-08-2009 00:00:00 20.47167 C 10.91 g/m*3 20.47 C 0 km/h
517 03-08-2009 00:00:00 19.3075 C 9.46 g/m*3 19.31 C 0 km/h
518 04-08-2009 00:00:00 20.48917 C 8.95 g/m*3 20.49 C 0 km/h
519 05-08-2009 00:00:00 22.0275 C 8.17 g/m*3 22.03 C 0 km/h
520 06-08-2009 00:00:00 24.19667 C 9.51 g/m*3 24.2 C 0 km/h
521 07-08-2009 00:00:00 25.2075 C 10.12 g/m*3 25.21 C 0 km/h
522 08-08-2009 00:00:00 21.22583 C 12.28 g/m*3 21.23 C 0 km/h
523 09-08-2009 00:00:00 22.82101 C 12.15 g/m*3 22.82 C 0 km/h
524 10-08-2009 00:00:00 21.7025 C 11.79 g/m*3 21.7 C 0 km/h
525 11-08-2009 00:00:00 20.44 C 11.61 g/m*3 20.44 C 0 km/h
Sensor: Nr:Datum:Temp:Abs-Feuchte:Windchill:Wind:
Aussen-T/F 526 12-08-2009 00:00:00 20.9725 C 11.23 g/m*3 20.97 C 0 km/h
527 13-08-2009 00:00:00 18.55917 C 12.82 g/m*3 18.56 C 0 km/h
528 14-08-2009 00:00:00 19.44083 C 10.85 g/m*3 19.44 C 0 km/h
529 15-08-2009 00:00:00 21.37917 C 10.5 g/m*3 21.38 C 0 km/h
530 16-08-2009 00:00:00 23.84583 C 11 g/m*3 23.85 C 0 km/h
531 17-08-2009 00:00:00 23.615 C 11.27 g/m*3 23.62 C 0 km/h
532 18-08-2009 00:00:00 22.105 C 9.45 g/m*3 22.11 C 0 km/h
533 19-08-2009 00:00:00 23.76 C 10.14 g/m*3 23.76 C 0 km/h
534 20-08-2009 00:00:00 26.03167 C 11.39 g/m*3 26.03 C 0 km/h
535 21-08-2009 00:00:00 20.32185 C 10.69 g/m*3 20.32 C 0 km/h
536 22-08-2009 00:00:00 19.745 C 9.13 g/m*3 19.75 C 0 km/h
537 23-08-2009 00:00:00 20.0375 C 8.31 g/m*3 20.04 C 0 km/h
538 24-08-2009 00:00:00 22.19667 C 9.27 g/m*3 22.2 C 0 km/h
539 25-08-2009 00:00:00 23.11917 C 10.67 g/m*3 23.12 C 0 km/h
540 26-08-2009 00:00:00 21.68417 C 9.77 g/m*3 21.68 C 0 km/h
541 27-08-2009 00:00:00 23.10167 C 10.48 g/m*3 23.1 C 0 km/h
542 28-08-2009 00:00:00 21.60583 C 8.45 g/m*3 21.61 C 0 km/h
543 29-08-2009 00:00:00 16.21167 C 6.62 g/m*3 16.21 C 0 km/h
544 30-08-2009 00:00:00 16.655 C 6.94 g/m*3 16.66 C 0 km/h
545 31-08-2009 00:00:00 19.54667 C 7.6 g/m*3 19.55 C 0 km/h
546 01-09-2009 00:00:00 19.93167 C 10.19 g/m*3 19.93 C 0 km/h
547 02-09-2009 00:00:00 18.765 C 9.38 g/m*3 18.77 C 0 km/h
548 03-09-2009 00:00:00 17.39328 C 8.67 g/m*3 17.39 C 0 km/h
549 04-09-2009 00:00:00 14.56333 C 8.22 g/m*3 14.56 C 0 km/h
550 05-09-2009 00:00:00 15.10833 C 7.6 g/m*3 15.11 C 0 km/h
Sensor: Nr:Datum:Temp:Abs-Feuchte:Windchill:Wind:
Aussen-T/F 551 06-09-2009 00:00:00 14.74583 C 8.27 g/m*3 14.75 C 0 km/h
552 07-09-2009 00:00:00 17.63417 C 8.91 g/m*3 17.63 C 0 km/h
553 08-09-2009 00:00:00 19.88167 C 9.54 g/m*3 19.88 C 0 km/h
554 09-09-2009 00:00:00 19.7475 C 9.47 g/m*3 19.75 C 0 km/h
555 10-09-2009 00:00:00 18.43917 C 10.33 g/m*3 18.44 C 0 km/h
556 11-09-2009 00:00:00 17.6725 C 7.37 g/m*3 17.67 C 0 km/h
557 12-09-2009 00:00:00 16.99083 C 7.3 g/m*3 16.99 C 0 km/h
558 13-09-2009 00:00:00 14.23 C 8.62 g/m*3 14.23 C 0 km/h
559 14-09-2009 00:00:00 12.17417 C 10.1 g/m*3 12.17 C 0 km/h
560 15-09-2009 00:00:00 13.7563 C 10.75 g/m*3 13.76 C 0 km/h
561 16-09-2009 00:00:00 16.725 C 11.49 g/m*3 16.73 C 0 km/h
562 17-09-2009 00:00:00 18.47583 C 9.96 g/m*3 18.48 C 0 km/h
563 18-09-2009 00:00:00 18.26083 C 9.85 g/m*3 18.26 C 0 km/h
564 19-09-2009 00:00:00 20.78583 C 11.08 g/m*3 20.79 C 0 km/h
565 20-09-2009 00:00:00 19.92833 C 11.89 g/m*3 19.93 C 0 km/h
566 21-09-2009 00:00:00 18.85833 C 10.75 g/m*3 18.86 C 0 km/h
567 22-09-2009 00:00:00 17.215 C 9.52 g/m*3 17.22 C 0 km/h
568 23-09-2009 00:00:00 17.4225 C 9.72 g/m*3 17.42 C 0 km/h
569 24-09-2009 00:00:00 17.19 C 10.45 g/m*3 17.19 C 0 km/h
570 25-09-2009 00:00:00 15.16083 C 8.71 g/m*3 15.16 C 0 km/h
571 26-09-2009 00:00:00 14.56333 C 8.19 g/m*3 14.56 C 0 km/h
572 27-09-2009 00:00:00 14.64 C 8.22 g/m*3 14.64 C 0 km/h
573 28-09-2009 00:00:00 14.21583 C 8.47 g/m*3 14.22 C 0 km/h
574 29-09-2009 00:00:00 15.88319 C 8.68 g/m*3 15.88 C 0 km/h
575 30-09-2009 00:00:00 16.535 C 9.98 g/m*3 16.54 C 0 km/h
Sensor: Nr:Datum:Temp:Abs-Feuchte:Windchill:Wind:
Aussen-T/F 576 01-10-2009 00:00:00 14.71583 C 8.88 g/m*3 14.72 C 0 km/h
577 02-10-2009 00:00:00 11.32167 C 6.59 g/m*3 11.32 C 0 km/h
578 03-10-2009 00:00:00 11.72333 C 6.76 g/m*3 11.72 C 0 km/h
579 04-10-2009 00:00:00 13.54167 C 7.94 g/m*3 13.54 C 0 km/h
580 05-10-2009 00:00:00 12.4075 C 9.99 g/m*3 12.41 C 0 km/h
581 06-10-2009 00:00:00 16.13417 C 12.08 g/m*3 16.13 C 0 km/h
582 07-10-2009 00:00:00 19.57083 C 12.9 g/m*3 19.57 C 0 km/h
583 08-10-2009 00:00:00 16.41167 C 9.99 g/m*3 16.41 C 0 km/h
584 09-10-2009 00:00:00 11.88417 C 7.56 g/m*3 11.88 C 0 km/h
585 10-10-2009 00:00:00 13.34667 C 9.66 g/m*3 13.35 C 0 km/h
586 11-10-2009 00:00:00 12.35042 C 8.83 g/m*3 12.35 C 0 km/h
587 12-10-2009 00:00:00 10.9275 C 6.43 g/m*3 10.93 C 0 km/h
588 13-10-2009 00:00:00 9.24333 C 6.35 g/m*3 9.24 C 0 km/h
589 14-10-2009 00:00:00 4.27333 C 4.38 g/m*3 4.27 C 0 km/h
590 15-10-2009 00:00:00 3.45583 C 4.18 g/m*3 3.46 C 0 km/h
591 16-10-2009 00:00:00 6.41083 C 5.8 g/m*3 6.41 C 0 km/h
592 17-10-2009 00:00:00 8.52083 C 5.63 g/m*3 8.52 C 0 km/h
593 18-10-2009 00:00:00 7.3775 C 5.38 g/m*3 7.38 C 0 km/h
594 19-10-2009 00:00:00 4.59 C 4.71 g/m*3 4.59 C 0 km/h
595 20-10-2009 00:00:00 5.17083 C 4.82 g/m*3 5.17 C 0 km/h
596 21-10-2009 00:00:00 8.07333 C 5.02 g/m*3 8.07 C 0 km/h
597 22-10-2009 00:00:00 9.4 C 5.91 g/m*3 9.4 C 0 km/h
598 23-10-2009 00:00:00 8.34 C 7.02 g/m*3 8.34 C 0 km/h
599 24-10-2009 00:00:00 10.5084 C 7.81 g/m*3 10.51 C 0 km/h
600 25-10-2009 00:00:00 12.6096 C 8.4 g/m*3 12.61 C 0 km/h
Sensor: Nr:Datum:Temp:Abs-Feuchte:Windchill:Wind:
Aussen-T/F 601 26-10-2009 00:00:00 11.8875 C 7.56 g/m*3 11.89 C 0 km/h
602 27-10-2009 00:00:00 11.82417 C 7.63 g/m*3 11.82 C 0 km/h
603 28-10-2009 00:00:00 8.37917 C 7.06 g/m*3 8.38 C 0 km/h
604 29-10-2009 00:00:00 8.69333 C 7.48 g/m*3 8.69 C 0 km/h
605 30-10-2009 00:00:00 10.54083 C 7.59 g/m*3 10.54 C 0 km/h
606 31-10-2009 00:00:00 7.03083 C 5.82 g/m*3 7.03 C 0 km/h
607 01-11-2009 00:00:00 9.17333 C 6.74 g/m*3 9.17 C 0 km/h
608 02-11-2009 00:00:00 10.32333 C 8.29 g/m*3 10.32 C 0 km/h
609 03-11-2009 00:00:00 8.06167 C 6.19 g/m*3 8.06 C 0 km/h
610 04-11-2009 00:00:00 8.75 C 7.01 g/m*3 8.75 C 0 km/h
611 05-11-2009 00:00:00 9.29748 C 6.2 g/m*3 9.3 C 0 km/h
612 06-11-2009 00:00:00 9.43333 C 6.28 g/m*3 9.43 C 0 km/h
613 07-11-2009 00:00:00 8.11583 C 5.94 g/m*3 8.12 C 0 km/h
614 08-11-2009 00:00:00 6.9 C 6.33 g/m*3 6.9 C 0 km/h
615 09-11-2009 00:00:00 6.21167 C 6.26 g/m*3 6.21 C 0 km/h
616 10-11-2009 00:00:00 6.03 C 6.79 g/m*3 6.03 C 0 km/h
617 11-11-2009 00:00:00 6.2525 C 6.18 g/m*3 6.25 C 0 km/h
618 12-11-2009 00:00:00 4.66 C 6.06 g/m*3 4.66 C 0 km/h
619 13-11-2009 00:00:00 11.27583 C 8.27 g/m*3 11.28 C 0 km/h
620 14-11-2009 00:00:00 11.7125 C 7.87 g/m*3 11.71 C 0 km/h
621 15-11-2009 00:00:00 11.2125 C 6.89 g/m*3 11.21 C 0 km/h
622 16-11-2009 00:00:00 10.92667 C 8.53 g/m*3 10.93 C 0 km/h
623 17-11-2009 00:00:00 10.88235 C 8.48 g/m*3 10.88 C 0 km/h
624 18-11-2009 00:00:00 10.245 C 6.24 g/m*3 10.25 C 0 km/h
625 19-11-2009 00:00:00 9.77667 C 6.57 g/m*3 9.78 C 0 km/h
Sensor: Nr:Datum:Temp:Abs-Feuchte:Windchill:Wind:
Aussen-T/F 626 20-11-2009 00:00:00 7.87917 C 6.83 g/m*3 7.88 C 0 km/h
627 21-11-2009 00:00:00 11.67333 C 7.8 g/m*3 11.67 C 0 km/h
628 22-11-2009 00:00:00 11.84167 C 6.48 g/m*3 11.84 C 0 km/h
629 23-11-2009 00:00:00 10.33417 C 6.93 g/m*3 10.33 C 0 km/h
630 24-11-2009 00:00:00 11.89833 C 7.31 g/m*3 11.9 C 0 km/h
631 25-11-2009 00:00:00 12.0875 C 6.36 g/m*3 12.09 C 0 km/h
632 26-11-2009 00:00:00 9.98917 C 5.73 g/m*3 9.99 C 0 km/h
633 27-11-2009 00:00:00 9.0425 C 5.58 g/m*3 9.04 C 0 km/h
634 28-11-2009 00:00:00 8.79 C 5.95 g/m*3 8.79 C 0 km/h
635 29-11-2009 00:00:00 9.41597 C 6.1 g/m*3 9.42 C 0 km/h
636 30-11-2009 00:00:00 6.46 C 6.32 g/m*3 6.46 C 0 km/h
637 01-12-2009 00:00:00 5.65583 C 5.93 g/m*3 5.66 C 0 km/h
638 02-12-2009 00:00:00 5.96 C 5.22 g/m*3 5.96 C 0 km/h
639 03-12-2009 00:00:00 8.53667 C 6.07 g/m*3 8.54 C 0 km/h
640 04-12-2009 00:00:00 4.73917 C 4.37 g/m*3 4.74 C 0 km/h
641 05-12-2009 00:00:00 5.3975 C 5.13 g/m*3 5.4 C 0 km/h
642 06-12-2009 00:00:00 9.83 C 7.53 g/m*3 9.83 C 0 km/h
643 07-12-2009 00:00:00 5.59917 C 6.01 g/m*3 5.6 C 0 km/h
644 08-12-2009 00:00:00 6.95833 C 6.27 g/m*3 6.96 C 0 km/h
645 09-12-2009 00:00:00 7.2525 C 6.19 g/m*3 7.25 C 0 km/h
646 10-12-2009 00:00:00 8.78583 C 6.99 g/m*3 8.79 C 0 km/h
647 11-12-2009 00:00:00 6.665 C 6.16 g/m*3 6.67 C 0 km/h
648 12-12-2009 00:00:00 3.47833 C 5.29 g/m*3 3.48 C 0 km/h
649 13-12-2009 00:00:00 1.50924 C 3.54 g/m*3 1.51 C 0 km/h
650 14-12-2009 00:00:00 -0.80667 C 2.67 g/m*3 -0.81 C 0 km/h
Sensor: Nr:Datum:Temp:Abs-Feuchte:Windchill:Wind:
Aussen-T/F 651 15-12-2009 00:00:00 -0.50083 C 2.88 g/m*3 -0.5 C 0 km/h
652 16-12-2009 00:00:00 -1.19917 C 2.79 g/m*3 -1.2 C 0 km/h
653 17-12-2009 00:00:00 -4.445 C 2.62 g/m*3 -4.45 C 0 km/h
654 18-12-2009 00:00:00 -5.04417 C 2.34 g/m*3 -5.04 C 0 km/h
655 19-12-2009 00:00:00 -12.79 C 1.12 g/m*3 -12.79 C 0 km/h
656 20-12-2009 00:00:00 -8.03917 C 1.87 g/m*3 -8.04 C 0 km/h
657 21-12-2009 00:00:00 -2.18417 C 3.25 g/m*3 -2.18 C 0 km/h
658 22-12-2009 00:00:00 2.7175 C 5.09 g/m*3 2.72 C 0 km/h
659 23-12-2009 00:00:00 0.49333 C 4.68 g/m*3 0.49 C 0 km/h
660 24-12-2009 00:00:00 2.31333 C 5.15 g/m*3 2.31 C 0 km/h
661 25-12-2009 00:00:00 4.38824 C 5.08 g/m*3 4.39 C 0 km/h
662 26-12-2009 00:00:00 2.04583 C 4.45 g/m*3 2.05 C 0 km/h
663 27-12-2009 00:00:00 0.5475 C 4.38 g/m*3 0.55 C 0 km/h
664 28-12-2009 00:00:00 3.1425 C 4.49 g/m*3 3.14 C 0 km/h
665 29-12-2009 00:00:00 0.4625 C 4.61 g/m*3 0.46 C 0 km/h
666 30-12-2009 00:00:00 7.05667 C 7.27 g/m*3 7.06 C 0 km/h
667 31-12-2009 00:00:00 5.32667 C 6.59 g/m*3 5.33 C 0 km/h
668 01-01-2010 00:00:00 -0.1725 C 4.38 g/m*3 -0.17 C 0 km/h
669 02-01-2010 00:00:00 -1.51083 C 3.34 g/m*3 -1.51 C 0 km/h
670 03-01-2010 00:00:00 -1.79667 C 3.45 g/m*3 -1.8 C 0 km/h
671 04-01-2010 00:00:00 -5.24083 C 2.41 g/m*3 -5.24 C 0 km/h
672 05-01-2010 00:00:00 -8.00083 C 2.22 g/m*3 -8 C 0 km/h
673 06-01-2010 00:00:00 -6.88917 C 2.25 g/m*3 -6.89 C 0 km/h
674 07-01-2010 00:00:00 -3.75966 C 2.79 g/m*3 -3.76 C 0 km/h
675 08-01-2010 00:00:00 -4.82167 C 2.54 g/m*3 -4.82 C 0 km/h
Sensor: Nr:Datum:Temp:Abs-Feuchte:Windchill:Wind:
Aussen-T/F 676 09-01-2010 00:00:00 -2.655 C 3.05 g/m*3 -2.66 C 0 km/h
677 10-01-2010 00:00:00 -1.87083 C 3.27 g/m*3 -1.87 C 0 km/h
678 11-01-2010 00:00:00 -1.42833 C 3.62 g/m*3 -1.43 C 0 km/h
679 12-01-2010 00:00:00 -1.65833 C 3.4 g/m*3 -1.66 C 0 km/h
680 13-01-2010 00:00:00 -2.2325 C 2.99 g/m*3 -2.23 C 0 km/h
681 14-01-2010 00:00:00 0.35417 C 3.98 g/m*3 0.35 C 0 km/h
682 15-01-2010 00:00:00 0.87333 C 4.07 g/m*3 0.87 C 0 km/h
683 16-01-2010 00:00:00 -0.11833 C 3.75 g/m*3 -0.12 C 0 km/h
684 17-01-2010 00:00:00 2.09667 C 5.1 g/m*3 2.1 C 0 km/h
685 18-01-2010 00:00:00 3.38333 C 5.07 g/m*3 3.38 C 0 km/h
686 19-01-2010 00:00:00 2.24583 C 5.1 g/m*3 2.25 C 0 km/h
687 20-01-2010 00:00:00 1.97417 C 4.66 g/m*3 1.97 C 0 km/h
688 21-01-2010 00:00:00 2.45126 C 4.02 g/m*3 2.45 C 0 km/h
689 22-01-2010 00:00:00 2.93667 C 4.24 g/m*3 2.94 C 0 km/h
690 23-01-2010 00:00:00 -0.41333 C 3.36 g/m*3 -0.41 C 0 km/h
691 24-01-2010 00:00:00 0.27167 C 4.06 g/m*3 0.27 C 0 km/h
692 25-01-2010 00:00:00 0.01667 C 4.19 g/m*3 0.02 C 0 km/h
693 26-01-2010 00:00:00 -3.325 C 2.8 g/m*3 -3.33 C 0 km/h
694 27-01-2010 00:00:00 -5.54083 C 2.18 g/m*3 -5.54 C 0 km/h
695 28-01-2010 00:00:00 1.20667 C 4.04 g/m*3 1.21 C 0 km/h
696 29-01-2010 00:00:00 1.39083 C 4.5 g/m*3 1.39 C 0 km/h
697 30-01-2010 00:00:00 -1.54583 C 3.39 g/m*3 -1.55 C 0 km/h
698 31-01-2010 00:00:00 -1.62333 C 3.2 g/m*3 -1.62 C 0 km/h
699 01-02-2010 00:00:00 0.20167 C 3.69 g/m*3 0.2 C 0 km/h
700 02-02-2010 00:00:00 0.69916 C 4 g/m*3 0.7 C 0 km/h
Sensor: Nr:Datum:Temp:Abs-Feuchte:Windchill:Wind:
Aussen-T/F 701 03-02-2010 00:00:00 2.28899 C 5.05 g/m*3 2.29 C 0 km/h
702 04-02-2010 00:00:00 4.17018 C 5.55 g/m*3 4.17 C 0 km/h
703 05-02-2010 00:00:00 3.29649 C 4.9 g/m*3 3.3 C 0 km/h
704 06-02-2010 00:00:00 4.55172 C 5.47 g/m*3 4.55 C 0 km/h
705 07-02-2010 00:00:00 4.17018 C 5.02 g/m*3 4.17 C 0 km/h
706 08-02-2010 00:00:00 -0.75 C 2.85 g/m*3 -0.75 C 0 km/h
707 09-02-2010 00:00:00 -3.74483 C 2.17 g/m*3 -3.74 C 0 km/h
708 10-02-2010 00:00:00 -4.8 C 2.32 g/m*3 -4.8 C 0 km/h
709 11-02-2010 00:00:00 -3.79828 C 2.62 g/m*3 -3.8 C 0 km/h
710 12-02-2010 00:00:00 -2.14737 C 2.95 g/m*3 -2.15 C 0 km/h
711 13-02-2010 00:00:00 -2.57414 C 2.82 g/m*3 -2.57 C 0 km/h
712 14-02-2010 00:00:00 -2.13621 C 3.1 g/m*3 -2.14 C 0 km/h
713 15-02-2010 00:00:00 -1.12632 C 3.21 g/m*3 -1.13 C 0 km/h
714 16-02-2010 00:00:00 -1.16379 C 3.02 g/m*3 -1.16 C 0 km/h
715 17-02-2010 00:00:00 -1.61754 C 3.18 g/m*3 -1.62 C 0 km/h
716 18-02-2010 00:00:00 3.2569 C 4.56 g/m*3 3.26 C 0 km/h
717 19-02-2010 00:00:00 3.59375 C 4.12 g/m*3 3.59 C 0 km/h
718 20-02-2010 00:00:00 1.69333 C 3.53 g/m*3 1.69 C 0 km/h
719 21-02-2010 00:00:00 2.87833 C 4.25 g/m*3 2.88 C 0 km/h
720 22-02-2010 00:00:00 6.76417 C 5.24 g/m*3 6.76 C 0 km/h
721 23-02-2010 00:00:00 9.7875 C 7.07 g/m*3 9.79 C 0 km/h
722 24-02-2010 00:00:00 9.55 C 6.5 g/m*3 9.55 C 0 km/h
723 25-02-2010 00:00:00 9.58 C 5.92 g/m*3 9.58 C 0 km/h
724 26-02-2010 00:00:00 8.62667 C 5.33 g/m*3 8.63 C 0 km/h
725 27-02-2010 00:00:00 8.4025 C 4.07 g/m*3 8.4 C 0 km/h
Sensor: Nr:Datum:Temp:Abs-Feuchte:Windchill:Wind:
Aussen-T/F 726 28-02-2010 00:00:00 8.30667 C 5.5 g/m*3 8.31 C 0 km/h
727 01-03-2010 00:00:00 5.40917 C 3.85 g/m*3 5.41 C 0 km/h
728 02-03-2010 00:00:00 3.135 C 3.87 g/m*3 3.14 C 0 km/h
729 03-03-2010 00:00:00 2.9925 C 3.33 g/m*3 2.99 C 0 km/h
730 04-03-2010 00:00:00 2.47395 C 2.67 g/m*3 2.47 C 0 km/h
731 05-03-2010 00:00:00 0.77667 C 2.41 g/m*3 0.78 C 0 km/h
732 06-03-2010 00:00:00 -0.47083 C 3.38 g/m*3 -0.47 C 0 km/h
733 07-03-2010 00:00:00 -1.6825 C 2.27 g/m*3 -1.68 C 0 km/h
734 08-03-2010 00:00:00 -1.21083 C 1.92 g/m*3 -1.21 C 0 km/h
735 09-03-2010 00:00:00 -0.87167 C 1.76 g/m*3 -0.87 C 0 km/h
736 10-03-2010 00:00:00 1.41667 C 1.75 g/m*3 1.42 C 0 km/h
737 11-03-2010 00:00:00 0.40167 C 2.56 g/m*3 0.4 C 0 km/h
738 12-03-2010 00:00:00 1.61167 C 3.86 g/m*3 1.61 C 0 km/h
739 13-03-2010 00:00:00 4.36583 C 4.23 g/m*3 4.37 C 0 km/h
740 14-03-2010 00:00:00 5.79833 C 4.06 g/m*3 5.8 C 0 km/h
741 15-03-2010 00:00:00 6.445 C 5.04 g/m*3 6.45 C 0 km/h
742 16-03-2010 00:00:00 6.08067 C 5.63 g/m*3 6.08 C 0 km/h
743 17-03-2010 00:00:00 6.69417 C 4.48 g/m*3 6.69 C 0 km/h
744 18-03-2010 00:00:00 10.12333 C 4.54 g/m*3 10.12 C 0 km/h
745 19-03-2010 00:00:00 15.0225 C 4.66 g/m*3 15.02 C 0 km/h
746 20-03-2010 00:00:00 14.37667 C 8.46 g/m*3 14.38 C 0 km/h
747 21-03-2010 00:00:00 11.23667 C 8.65 g/m*3 11.24 C 0 km/h
748 22-03-2010 00:00:00 9.7575 C 7.03 g/m*3 9.76 C 0 km/h
749 23-03-2010 00:00:00 8.94 C 6.12 g/m*3 8.94 C 0 km/h
750 24-03-2010 00:00:00 11.9975 C 6.24 g/m*3 12 C 0 km/h
Sensor: Nr:Datum:Temp:Abs-Feuchte:Windchill:Wind:
Aussen-T/F 751 25-03-2010 00:00:00 14.27083 C 6.52 g/m*3 14.27 C 0 km/h
752 26-03-2010 00:00:00 10.0325 C 7.02 g/m*3 10.03 C 0 km/h
753 27-03-2010 00:00:00 9.34333 C 5.7 g/m*3 9.34 C 0 km/h
754 28-03-2010 00:00:00 9.93478 C 6.19 g/m*3 9.93 C 0 km/h
755 29-03-2010 00:00:00 11.88167 C 8.04 g/m*3 11.88 C 0 km/h
756 30-03-2010 00:00:00 12.70672 C 6.43 g/m*3 12.71 C 0 km/h
757 31-03-2010 00:00:00 8.18667 C 4.45 g/m*3 8.19 C 0 km/h
758 01-04-2010 00:00:00 5.84333 C 3.76 g/m*3 5.84 C 0 km/h
759 02-04-2010 00:00:00 6.48583 C 4.37 g/m*3 6.49 C 0 km/h
760 03-04-2010 00:00:00 9.73667 C 5.47 g/m*3 9.74 C 0 km/h
761 04-04-2010 00:00:00 8.98833 C 5.25 g/m*3 8.99 C 0 km/h
762 05-04-2010 00:00:00 9.15083 C 4.56 g/m*3 9.15 C 0 km/h
763 06-04-2010 00:00:00 10.38167 C 4.41 g/m*3 10.38 C 0 km/h
764 07-04-2010 00:00:00 13.61167 C 5.07 g/m*3 13.61 C 0 km/h
765 08-04-2010 00:00:00 12.375 C 6.96 g/m*3 12.38 C 0 km/h
766 09-04-2010 00:00:00 11.49917 C 5.91 g/m*3 11.5 C 0 km/h
767 10-04-2010 00:00:00 11.3575 C 4.66 g/m*3 11.36 C 0 km/h
768 11-04-2010 00:00:00 7.86667 C 4.35 g/m*3 7.87 C 0 km/h
769 12-04-2010 00:00:00 7.44958 C 5.35 g/m*3 7.45 C 0 km/h
770 13-04-2010 00:00:00 11.85583 C 6.16 g/m*3 11.86 C 0 km/h
771 14-04-2010 00:00:00 11.76417 C 4.66 g/m*3 11.76 C 0 km/h
772 15-04-2010 00:00:00 11.8575 C 5 g/m*3 11.86 C 0 km/h
773 16-04-2010 00:00:00 9.71583 C 4.32 g/m*3 9.72 C 0 km/h
774 17-04-2010 00:00:00 11.1225 C 4.54 g/m*3 11.12 C 0 km/h
775 18-04-2010 00:00:00 13.27917 C 4.52 g/m*3 13.28 C 0 km/h
Sensor: Nr:Datum:Temp:Abs-Feuchte:Windchill:Wind:
Aussen-T/F 776 19-04-2010 00:00:00 11.18333 C 5.12 g/m*3 11.18 C 0 km/h
777 20-04-2010 00:00:00 11.13833 C 5.11 g/m*3 11.14 C 0 km/h
778 21-04-2010 00:00:00 7.34417 C 3.84 g/m*3 7.34 C 0 km/h
779 22-04-2010 00:00:00 8.35333 C 3.82 g/m*3 8.35 C 0 km/h
780 23-04-2010 00:00:00 11.44917 C 4.09 g/m*3 11.45 C 0 km/h
781 24-04-2010 00:00:00 14.91167 C 4.56 g/m*3 14.91 C 0 km/h
782 25-04-2010 00:00:00 17.1075 C 5.25 g/m*3 17.11 C 0 km/h
783 26-04-2010 00:00:00 15.72269 C 7.07 g/m*3 15.72 C 0 km/h
784 27-04-2010 00:00:00 15.50417 C 6.31 g/m*3 15.5 C 0 km/h
785 28-04-2010 00:00:00 16.8925 C 6.33 g/m*3 16.89 C 0 km/h
786 29-04-2010 00:00:00 19.21417 C 6.68 g/m*3 19.21 C 0 km/h
787 30-04-2010 00:00:00 18.69583 C 7.11 g/m*3 18.7 C 0 km/h
788 01-05-2010 00:00:00 15.09917 C 6.78 g/m*3 15.1 C 0 km/h
789 02-05-2010 00:00:00 13.48583 C 7.64 g/m*3 13.49 C 0 km/h
790 03-05-2010 00:00:00 10.01667 C 6.94 g/m*3 10.02 C 0 km/h
791 04-05-2010 00:00:00 9.78833 C 5.53 g/m*3 9.79 C 0 km/h
792 05-05-2010 00:00:00 10.09083 C 3.78 g/m*3 10.09 C 0 km/h
793 06-05-2010 00:00:00 6.68167 C 6.78 g/m*3 6.68 C 0 km/h
794 07-05-2010 00:00:00 6.49417 C 6.66 g/m*3 6.49 C 0 km/h
795 08-05-2010 00:00:00 11.06218 C 6.38 g/m*3 11.06 C 0 km/h
796 09-05-2010 00:00:00 12.575 C 6.93 g/m*3 12.58 C 0 km/h
797 10-05-2010 00:00:00 11.99917 C 6.67 g/m*3 12 C 0 km/h
798 11-05-2010 00:00:00 11.53167 C 6.84 g/m*3 11.53 C 0 km/h
799 12-05-2010 00:00:00 8.62333 C 6.33 g/m*3 8.62 C 0 km/h
800 13-05-2010 00:00:00 8.07667 C 6.31 g/m*3 8.08 C 0 km/h
Sensor: Nr:Datum:Temp:Abs-Feuchte:Windchill:Wind:
Aussen-T/F 801 14-05-2010 00:00:00 8.97333 C 7.22 g/m*3 8.97 C 0 km/h
802 15-05-2010 00:00:00 10.6825 C 5.92 g/m*3 10.68 C 0 km/h
803 16-05-2010 00:00:00 13.32917 C 5.32 g/m*3 13.33 C 0 km/h
804 17-05-2010 00:00:00 10.56917 C 7.13 g/m*3 10.57 C 0 km/h
805 18-05-2010 00:00:00 11.44333 C 6.07 g/m*3 11.44 C 0 km/h
806 19-05-2010 00:00:00 10.30583 C 6.32 g/m*3 10.31 C 0 km/h
807 20-05-2010 00:00:00 12.64034 C 6.31 g/m*3 12.64 C 0 km/h
808 21-05-2010 00:00:00 16.54333 C 7.66 g/m*3 16.54 C 0 km/h
809 22-05-2010 00:00:00 18.32583 C 7.75 g/m*3 18.33 C 0 km/h
810 23-05-2010 00:00:00 20.32083 C 8.65 g/m*3 20.32 C 0 km/h
811 24-05-2010 00:00:00 21.23 C 8.94 g/m*3 21.23 C 0 km/h
812 25-05-2010 00:00:00 20.64583 C 7.99 g/m*3 20.65 C 0 km/h
813 26-05-2010 00:00:00 15.41917 C 9.07 g/m*3 15.42 C 0 km/h
814 27-05-2010 00:00:00 15.6175 C 8.18 g/m*3 15.62 C 0 km/h
815 28-05-2010 00:00:00 17.3075 C 7.94 g/m*3 17.31 C 0 km/h
816 29-05-2010 00:00:00 16.34 C 7.23 g/m*3 16.34 C 0 km/h
817 30-05-2010 00:00:00 14.5975 C 8.93 g/m*3 14.6 C 0 km/h
818 31-05-2010 00:00:00 11.56667 C 8.16 g/m*3 11.57 C 0 km/h
819 01-06-2010 00:00:00 16.01833 C 8.41 g/m*3 16.02 C 0 km/h
820 02-06-2010 00:00:00 17.66471 C 7.79 g/m*3 17.66 C 0 km/h
821 03-06-2010 00:00:00 20.49083 C 7.88 g/m*3 20.49 C 0 km/h
822 04-06-2010 00:00:00 21.43 C 7.91 g/m*3 21.43 C 0 km/h
823 05-06-2010 00:00:00 22.97667 C 8.82 g/m*3 22.98 C 0 km/h
824 06-06-2010 00:00:00 20.91333 C 11.1 g/m*3 20.91 C 0 km/h
825 07-06-2010 00:00:00 19.58833 C 9.05 g/m*3 19.59 C 0 km/h
Sensor: Nr:Datum:Temp:Abs-Feuchte:Windchill:Wind:
Aussen-T/F 826 08-06-2010 00:00:00 19.76833 C 9.52 g/m*3 19.77 C 0 km/h
827 09-06-2010 00:00:00 22.5625 C 11.34 g/m*3 22.56 C 0 km/h
828 10-06-2010 00:00:00 22.76417 C 13.55 g/m*3 22.76 C 0 km/h
829 11-06-2010 00:00:00 22.89167 C 11.59 g/m*3 22.89 C 0 km/h
830 12-06-2010 00:00:00 18.84917 C 10.25 g/m*3 18.85 C 0 km/h
831 13-06-2010 00:00:00 18.25083 C 7.8 g/m*3 18.25 C 0 km/h
832 14-06-2010 00:00:00 19.76667 C 7.8 g/m*3 19.77 C 0 km/h
833 15-06-2010 00:00:00 18.9 C 8.06 g/m*3 18.9 C 0 km/h
834 16-06-2010 00:00:00 18.82833 C 6.18 g/m*3 18.83 C 0 km/h
835 17-06-2010 00:00:00 15.08583 C 9.23 g/m*3 15.09 C 0 km/h
836 18-06-2010 00:00:00 15.2325 C 9.35 g/m*3 15.23 C 0 km/h
837 19-06-2010 00:00:00 14.2725 C 6.27 g/m*3 14.27 C 0 km/h
838 20-06-2010 00:00:00 13.20333 C 6.8 g/m*3 13.2 C 0 km/h
839 21-06-2010 00:00:00 14.11083 C 6.37 g/m*3 14.11 C 0 km/h
840 22-06-2010 00:00:00 17.38667 C 7.03 g/m*3 17.39 C 0 km/h
841 23-06-2010 00:00:00 19.75917 C 8.12 g/m*3 19.76 C 0 km/h
842 24-06-2010 00:00:00 22.54833 C 8.68 g/m*3 22.55 C 0 km/h
843 25-06-2010 00:00:00 23.37 C 8.65 g/m*3 23.37 C 0 km/h
844 26-06-2010 00:00:00 23.635 C 8.77 g/m*3 23.64 C 0 km/h
845 27-06-2010 00:00:00 24.49417 C 9.01 g/m*3 24.49 C 0 km/h
846 28-06-2010 00:00:00 25.25546 C 9.1 g/m*3 25.26 C 0 km/h
847 29-06-2010 00:00:00 24.86167 C 9.83 g/m*3 24.86 C 0 km/h
848 30-06-2010 00:00:00 24.6175 C 10.06 g/m*3 24.62 C 0 km/h
849 01-07-2010 00:00:00 25.8425 C 9.72 g/m*3 25.84 C 0 km/h
850 02-07-2010 00:00:00 26.96667 C 9.63 g/m*3 26.97 C 0 km/h
Sensor: Nr:Datum:Temp:Abs-Feuchte:Windchill:Wind:
Aussen-T/F 851 03-07-2010 00:00:00 26.33 C 11.31 g/m*3 26.33 C 0 km/h
852 04-07-2010 00:00:00 26.44833 C 12.05 g/m*3 26.45 C 0 km/h
853 05-07-2010 00:00:00 22.02083 C 9.04 g/m*3 22.02 C 0 km/h
854 06-07-2010 00:00:00 20.17833 C 8.34 g/m*3 20.18 C 0 km/h
855 07-07-2010 00:00:00 22.53417 C 8.16 g/m*3 22.53 C 0 km/h
856 08-07-2010 00:00:00 26.43417 C 8.69 g/m*3 26.43 C 0 km/h
857 09-07-2010 00:00:00 27.51333 C 9.42 g/m*3 27.51 C 0 km/h
858 10-07-2010 00:00:00 29.25667 C 10.76 g/m*3 29.26 C 0 km/h
859 11-07-2010 00:00:00 28.48319 C 12.85 g/m*3 28.48 C 0 km/h
860 12-07-2010 00:00:00 27.1175 C 11.1 g/m*3 27.12 C 0 km/h
861 13-07-2010 00:00:00 25.36083 C 10.39 g/m*3 25.36 C 0 km/h
862 14-07-2010 00:00:00 25.98917 C 11.73 g/m*3 25.99 C 0 km/h
863 15-07-2010 00:00:00 22.6525 C 8.81 g/m*3 22.65 C 0 km/h
864 16-07-2010 00:00:00 23.97667 C 8.47 g/m*3 23.98 C 0 km/h
865 17-07-2010 00:00:00 21.99167 C 10.18 g/m*3 21.99 C 0 km/h
866 18-07-2010 00:00:00 21.73833 C 7.35 g/m*3 21.74 C 0 km/h
867 19-07-2010 00:00:00 23.63167 C 8.01 g/m*3 23.63 C 0 km/h
868 20-07-2010 00:00:00 25.03833 C 8.46 g/m*3 25.04 C 0 km/h
869 21-07-2010 00:00:00 24.73833 C 9.31 g/m*3 24.74 C 0 km/h
870 22-07-2010 00:00:00 21.34917 C 11.61 g/m*3 21.35 C 0 km/h
871 23-07-2010 00:00:00 20.17059 C 11.52 g/m*3 20.17 C 0 km/h
872 24-07-2010 00:00:00 19.00667 C 9.15 g/m*3 19.01 C 0 km/h
873 25-07-2010 00:00:00 17.26833 C 7.8 g/m*3 17.27 C 0 km/h
874 26-07-2010 00:00:00 17.2925 C 11.46 g/m*3 17.29 C 0 km/h
875 27-07-2010 00:00:00 19.815 C 10.06 g/m*3 19.82 C 0 km/h
Sensor: Nr:Datum:Temp:Abs-Feuchte:Windchill:Wind:
Aussen-T/F 876 28-07-2010 00:00:00 20.5075 C 11.17 g/m*3 20.51 C 0 km/h
877 29-07-2010 00:00:00 16.32417 C 11.42 g/m*3 16.32 C 0 km/h
878 30-07-2010 00:00:00 19.665 C 9.34 g/m*3 19.67 C 0 km/h
879 31-07-2010 00:00:00 20.62417 C 9.08 g/m*3 20.62 C 0 km/h
880 01-08-2010 00:00:00 22.90833 C 11.98 g/m*3 22.91 C 0 km/h
881 02-08-2010 00:00:00 19.60917 C 11.25 g/m*3 19.61 C 0 km/h
882 03-08-2010 00:00:00 18.94167 C 10.12 g/m*3 18.94 C 0 km/h
883 04-08-2010 00:00:00 19.62269 C 9.16 g/m*3 19.62 C 0 km/h
884 05-08-2010 00:00:00 18.49417 C 10 g/m*3 18.49 C 0 km/h
885 06-08-2010 00:00:00 19.04667 C 8.08 g/m*3 19.05 C 0 km/h
886 07-08-2010 00:00:00 19.46583 C 7.91 g/m*3 19.47 C 0 km/h
887 08-08-2010 00:00:00 18.485 C 11.68 g/m*3 18.49 C 0 km/h
888 09-08-2010 00:00:00 19.515 C 10.42 g/m*3 19.52 C 0 km/h
889 10-08-2010 00:00:00 22.13583 C 9.74 g/m*3 22.14 C 0 km/h
890 11-08-2010 00:00:00 20.32833 C 12.64 g/m*3 20.33 C 0 km/h
891 12-08-2010 00:00:00 19.10917 C 11.28 g/m*3 19.11 C 0 km/h
892 13-08-2010 00:00:00 18.77833 C 9.07 g/m*3 18.78 C 0 km/h
893 14-08-2010 00:00:00 19.9675 C 9.59 g/m*3 19.97 C 0 km/h
894 15-08-2010 00:00:00 16.88667 C 11.8 g/m*3 16.89 C 0 km/h
895 16-08-2010 00:00:00 17.07479 C 11.15 g/m*3 17.07 C 0 km/h
896 17-08-2010 00:00:00 16.06667 C 10.71 g/m*3 16.07 C 0 km/h
897 18-08-2010 00:00:00 18.40917 C 9.91 g/m*3 18.41 C 0 km/h
898 19-08-2010 00:00:00 18.88917 C 8.2 g/m*3 18.89 C 0 km/h
899 20-08-2010 00:00:00 20.42605 C 9.9 g/m*3 20.43 C 0 km/h
900 21-08-2010 00:00:00 23.76417 C 11.32 g/m*3 23.76 C 0 km/h
Sensor: Nr:Datum:Temp:Abs-Feuchte:Windchill:Wind:
Aussen-T/F 901 22-08-2010 00:00:00 23.01667 C 12.14 g/m*3 23.02 C 0 km/h
902 23-08-2010 00:00:00 21.205 C 13.12 g/m*3 21.21 C 0 km/h
903 24-08-2010 00:00:00 19.27083 C 7.86 g/m*3 19.27 C 0 km/h
904 25-08-2010 00:00:00 17.61917 C 7.68 g/m*3 17.62 C 0 km/h
905 26-08-2010 00:00:00 20.68083 C 11.52 g/m*3 20.68 C 0 km/h
906 27-08-2010 00:00:00 18.37667 C 13.18 g/m*3 18.38 C 0 km/h
907 28-08-2010 00:00:00 14.0675 C 8.89 g/m*3 14.07 C 0 km/h
908 29-08-2010 00:00:00 13.03167 C 8.58 g/m*3 13.03 C 0 km/h
909 30-08-2010 00:00:00 12.5675 C 8.53 g/m*3 12.57 C 0 km/h
910 31-08-2010 00:00:00 15.42917 C 8.4 g/m*3 15.43 C 0 km/h
911 01-09-2010 00:00:00 14.82437 C 8.4 g/m*3 14.82 C 0 km/h
912 02-09-2010 00:00:00 14.95333 C 8.79 g/m*3 14.95 C 0 km/h
913 03-09-2010 00:00:00 15.91417 C 9.06 g/m*3 15.91 C 0 km/h
914 04-09-2010 00:00:00 16.71417 C 8.43 g/m*3 16.71 C 0 km/h
915 05-09-2010 00:00:00 15.205 C 7.52 g/m*3 15.21 C 0 km/h
916 06-09-2010 00:00:00 15.675 C 6.76 g/m*3 15.68 C 0 km/h
917 07-09-2010 00:00:00 13.36083 C 8.36 g/m*3 13.36 C 0 km/h
918 08-09-2010 00:00:00 15.545 C 10.94 g/m*3 15.55 C 0 km/h
919 09-09-2010 00:00:00 16.20583 C 9.61 g/m*3 16.21 C 0 km/h
920 10-09-2010 00:00:00 16.18 C 10.13 g/m*3 16.18 C 0 km/h
921 11-09-2010 00:00:00 18.13417 C 10.44 g/m*3 18.13 C 0 km/h
922 12-09-2010 00:00:00 16.21667 C 10.52 g/m*3 16.22 C 0 km/h
923 13-09-2010 00:00:00 15.67583 C 9.31 g/m*3 15.68 C 0 km/h
924 14-09-2010 00:00:00 16.63697 C 8.96 g/m*3 16.64 C 0 km/h
925 15-09-2010 00:00:00 16.3175 C 7.82 g/m*3 16.32 C 0 km/h
Sensor: Nr:Datum:Temp:Abs-Feuchte:Windchill:Wind:
Aussen-T/F 926 16-09-2010 00:00:00 14.07 C 8.33 g/m*3 14.07 C 0 km/h
927 17-09-2010 00:00:00 13.76667 C 7.53 g/m*3 13.77 C 0 km/h
928 18-09-2010 00:00:00 11.45083 C 6.84 g/m*3 11.45 C 0 km/h
929 19-09-2010 00:00:00 11.7425 C 6.69 g/m*3 11.74 C 0 km/h
930 20-09-2010 00:00:00 14.01 C 7.27 g/m*3 14.01 C 0 km/h
931 21-09-2010 00:00:00 14.27 C 8.52 g/m*3 14.27 C 0 km/h
932 22-09-2010 00:00:00 15.86667 C 9.22 g/m*3 15.87 C 0 km/h
933 23-09-2010 00:00:00 16.56167 C 9.98 g/m*3 16.56 C 0 km/h
934 24-09-2010 00:00:00 14.165 C 11.47 g/m*3 14.17 C 0 km/h
935 25-09-2010 00:00:00 12.41833 C 7.9 g/m*3 12.42 C 0 km/h
936 26-09-2010 00:00:00 11.2425 C 7.29 g/m*3 11.24 C 0 km/h
937 27-09-2010 00:00:00 9.86807 C 7.48 g/m*3 9.87 C 0 km/h
938 28-09-2010 00:00:00 10.93083 C 9.4 g/m*3 10.93 C 0 km/h
939 29-09-2010 00:00:00 13.39417 C 8.9 g/m*3 13.39 C 0 km/h
940 30-09-2010 00:00:00 11.89667 C 8.83 g/m*3 11.9 C 0 km/h
941 01-10-2010 00:00:00 12.33667 C 9.1 g/m*3 12.34 C 0 km/h
942 02-10-2010 00:00:00 13.4525 C 10.36 g/m*3 13.45 C 0 km/h
943 03-10-2010 00:00:00 17.83583 C 10.56 g/m*3 17.84 C 0 km/h
944 04-10-2010 00:00:00 16.905 C 9.67 g/m*3 16.91 C 0 km/h
945 05-10-2010 00:00:00 15.64833 C 10.9 g/m*3 15.65 C 0 km/h
946 06-10-2010 00:00:00 17.22333 C 9.99 g/m*3 17.22 C 0 km/h
947 07-10-2010 00:00:00 16.31167 C 10.3 g/m*3 16.31 C 0 km/h
948 08-10-2010 00:00:00 16.02917 C 9.37 g/m*3 16.03 C 0 km/h
949 09-10-2010 00:00:00 13.1475 C 8.13 g/m*3 13.15 C 0 km/h
950 10-10-2010 00:00:00 11.6125 C 6.4 g/m*3 11.61 C 0 km/h
Sensor: Nr:Datum:Temp:Abs-Feuchte:Windchill:Wind:
Aussen-T/F 951 11-10-2010 00:00:00 10.90084 C 5.45 g/m*3 10.9 C 0 km/h
952 12-10-2010 00:00:00 8.71917 C 5.9 g/m*3 8.72 C 0 km/h
953 13-10-2010 00:00:00 7.475 C 5.54 g/m*3 7.48 C 0 km/h
954 14-10-2010 00:00:00 7.55583 C 5.99 g/m*3 7.56 C 0 km/h
955 15-10-2010 00:00:00 10.475 C 7.36 g/m*3 10.48 C 0 km/h
956 16-10-2010 00:00:00 8.375 C 7.62 g/m*3 8.38 C 0 km/h
957 17-10-2010 00:00:00 7.22667 C 6.33 g/m*3 7.23 C 0 km/h
958 18-10-2010 00:00:00 6.71833 C 5.58 g/m*3 6.72 C 0 km/h
959 19-10-2010 00:00:00 7.28167 C 6.47 g/m*3 7.28 C 0 km/h
960 20-10-2010 00:00:00 6.14167 C 5.97 g/m*3 6.14 C 0 km/h
961 21-10-2010 00:00:00 5.27 C 4.63 g/m*3 5.27 C 0 km/h
962 22-10-2010 00:00:00 4.20167 C 4.11 g/m*3 4.2 C 0 km/h
963 23-10-2010 00:00:00 4.37899 C 4.82 g/m*3 4.38 C 0 km/h
964 24-10-2010 00:00:00 8.55667 C 5.66 g/m*3 8.56 C 0 km/h
965 25-10-2010 00:00:00 6.1525 C 5.22 g/m*3 6.15 C 0 km/h
966 26-10-2010 00:00:00 3.62417 C 5.12 g/m*3 3.62 C 0 km/h
967 27-10-2010 00:00:00 8.14917 C 4.91 g/m*3 8.15 C 0 km/h
968 28-10-2010 00:00:00 9.1725 C 5.55 g/m*3 9.17 C 0 km/h
969 29-10-2010 00:00:00 6.48333 C 6.48 g/m*3 6.48 C 0 km/h
970 02-11-2010 00:00:00 11.31548 C 6.81 g/m*3 11.32 C 0 km/h
971 03-11-2010 00:00:00 13.10333 C 7.84 g/m*3 13.1 C 0 km/h
972 04-11-2010 00:00:00 16.41167 C 8.7 g/m*3 16.41 C 0 km/h
973 05-11-2010 00:00:00 14.51917 C 7.32 g/m*3 14.52 C 0 km/h
974 06-11-2010 00:00:00 10.40917 C 7.73 g/m*3 10.41 C 0 km/h
975 07-11-2010 00:00:00 6.86917 C 7.11 g/m*3 6.87 C 0 km/h
Sensor: Nr:Datum:Temp:Abs-Feuchte:Windchill:Wind:
Aussen-T/F 976 08-11-2010 00:00:00 4.65583 C 5.68 g/m*3 4.66 C 0 km/h
977 09-11-2010 00:00:00 6.65667 C 6.48 g/m*3 6.66 C 0 km/h
978 10-11-2010 00:00:00 7.08319 C 6.48 g/m*3 7.08 C 0 km/h
979 11-11-2010 00:00:00 5.84167 C 5.32 g/m*3 5.84 C 0 km/h
980 12-11-2010 00:00:00 11.04083 C 6.73 g/m*3 11.04 C 0 km/h
981 13-11-2010 00:00:00 14.51917 C 8.83 g/m*3 14.52 C 0 km/h
982 14-11-2010 00:00:00 14.60833 C 7.79 g/m*3 14.61 C 0 km/h
983 15-11-2010 00:00:00 9.47833 C 6.15 g/m*3 9.48 C 0 km/h
984 16-11-2010 00:00:00 6.0125 C 5.77 g/m*3 6.01 C 0 km/h
985 17-11-2010 00:00:00 5.3125 C 5.17 g/m*3 5.31 C 0 km/h
986 18-11-2010 00:00:00 5.61917 C 5.95 g/m*3 5.62 C 0 km/h
987 19-11-2010 00:00:00 6.4275 C 6.1 g/m*3 6.43 C 0 km/h
988 20-11-2010 00:00:00 4.8325 C 5.94 g/m*3 4.83 C 0 km/h
989 21-11-2010 00:00:00 4.48333 C 4.84 g/m*3 4.48 C 0 km/h
990 22-11-2010 00:00:00 4.47417 C 4.96 g/m*3 4.47 C 0 km/h
991 23-11-2010 00:00:00 4.54118 C 4.59 g/m*3 4.54 C 0 km/h
992 24-11-2010 00:00:00 3.415 C 4.9 g/m*3 3.42 C 0 km/h
993 25-11-2010 00:00:00 1.74083 C 4.39 g/m*3 1.74 C 0 km/h
994 26-11-2010 00:00:00 -0.29083 C 4.18 g/m*3 -0.29 C 0 km/h
995 27-11-2010 00:00:00 -1.99167 C 3.56 g/m*3 -1.99 C 0 km/h
996 28-11-2010 00:00:00 -1.325 C 3.55 g/m*3 -1.33 C 0 km/h
997 29-11-2010 00:00:00 -1.55833 C 3.51 g/m*3 -1.56 C 0 km/h
998 30-11-2010 00:00:00 -1.9425 C 3.4 g/m*3 -1.94 C 0 km/h
999 01-12-2010 00:00:00 -5.7325 C 1.99 g/m*3 -5.73 C 0 km/h
1000 02-12-2010 00:00:00 -7.03167 C 2.03 g/m*3 -7.03 C 0 km/h
Sensor: Nr:Datum:Temp:Abs-Feuchte:Windchill:Wind:
Aussen-T/F 1001 03-12-2010 00:00:00 -7.38583 C 2.19 g/m*3 -7.39 C 0 km/h
1002 04-12-2010 00:00:00 -3.48167 C 2.61 g/m*3 -3.48 C 0 km/h
1003 05-12-2010 00:00:00 0.91667 C 3.38 g/m*3 0.92 C 0 km/h
1004 06-12-2010 00:00:00 0.24538 C 4.01 g/m*3 0.25 C 0 km/h
1005 07-12-2010 00:00:00 -0.20833 C 3.88 g/m*3 -0.21 C 0 km/h
1006 08-12-2010 00:00:00 -0.25917 C 4.32 g/m*3 -0.26 C 0 km/h
1007 09-12-2010 00:00:00 0.61333 C 3.92 g/m*3 0.61 C 0 km/h
1008 10-12-2010 00:00:00 1.73333 C 4.69 g/m*3 1.73 C 0 km/h
1009 11-12-2010 00:00:00 4.07583 C 5.18 g/m*3 4.08 C 0 km/h
1010 12-12-2010 00:00:00 3.085 C 4.57 g/m*3 3.09 C 0 km/h
1011 13-12-2010 00:00:00 -4.44833 C 2.51 g/m*3 -4.45 C 0 km/h
1012 14-12-2010 00:00:00 -3.65833 C 2.82 g/m*3 -3.66 C 0 km/h
1013 15-12-2010 00:00:00 -3.1275 C 2.86 g/m*3 -3.13 C 0 km/h
1014 16-12-2010 00:00:00 -3.4675 C 2.96 g/m*3 -3.47 C 0 km/h
1015 17-12-2010 00:00:00 -2.77417 C 2.92 g/m*3 -2.77 C 0 km/h
1016 18-12-2010 00:00:00 -4.65833 C 2.74 g/m*3 -4.66 C 0 km/h
1017 19-12-2010 00:00:00 -0.7125 C 3.86 g/m*3 -0.71 C 0 km/h
1018 20-12-2010 00:00:00 -1.53667 C 3.48 g/m*3 -1.54 C 0 km/h
1019 21-12-2010 00:00:00 -0.65546 C 4 g/m*3 -0.66 C 0 km/h
1020 22-12-2010 00:00:00 0.9225 C 4.66 g/m*3 0.92 C 0 km/h
1021 23-12-2010 00:00:00 -0.36833 C 4.23 g/m*3 -0.37 C 0 km/h
1022 24-12-2010 00:00:00 -1.77438 C 3.53 g/m*3 -1.77 C 0 km/h
1023 25-12-2010 00:00:00 -5.4775 C 2.37 g/m*3 -5.48 C 0 km/h
1024 26-12-2010 00:00:00 -4.87833 C 2.59 g/m*3 -4.88 C 0 km/h
1025 27-12-2010 00:00:00 -2.21833 C 3.28 g/m*3 -2.22 C 0 km/h
Sensor: Nr:Datum:Temp:Abs-Feuchte:Windchill:Wind:
Aussen-T/F 1026 28-12-2010 00:00:00 -2.07899 C 3.35 g/m*3 -2.08 C 0 km/h
1027 29-12-2010 00:00:00 -0.255 C 3.76 g/m*3 -0.26 C 0 km/h
1028 30-12-2010 00:00:00 -0.55333 C 3.62 g/m*3 -0.55 C 0 km/h
1029 31-12-2010 00:00:00 -1.09187 C 3.57 g/m*3 -1.09 C 0 km/h
1030 01-01-2011 00:00:00 1.07311 C 4.52 g/m*3 1.07 C 0 km/h
1031 02-01-2011 00:00:00 0.8025 C 4.39 g/m*3 0.8 C 0 km/h
1032 03-01-2011 00:00:00 -0.9125 C 3.88 g/m*3 -0.91 C 0 km/h
1033 04-01-2011 00:00:00 -2.36667 C 3.35 g/m*3 -2.37 C 0 km/h
1034 05-01-2011 00:00:00 -3.83583 C 2.66 g/m*3 -3.84 C 0 km/h
1035 06-01-2011 00:00:00 3.72667 C 5.49 g/m*3 3.73 C 0 km/h
1036 07-01-2011 00:00:00 6.91833 C 6.93 g/m*3 6.92 C 0 km/h
1037 08-01-2011 00:00:00 10.5675 C 7.09 g/m*3 10.57 C 0 km/h
1038 09-01-2011 00:00:00 5.08655 C 5.84 g/m*3 5.09 C 0 km/h
1039 10-01-2011 00:00:00 0.7175 C 4.39 g/m*3 0.72 C 0 km/h
1040 11-01-2011 00:00:00 3.43667 C 4.81 g/m*3 3.44 C 0 km/h
1041 12-01-2011 00:00:00 5.44 C 5.5 g/m*3 5.44 C 0 km/h
1042 13-01-2011 00:00:00 11.80333 C 8.2 g/m*3 11.8 C 0 km/h
1043 14-01-2011 00:00:00 11.77417 C 6.94 g/m*3 11.77 C 0 km/h
1044 15-01-2011 00:00:00 8.68167 C 5.98 g/m*3 8.68 C 0 km/h
1045 16-01-2011 00:00:00 6.84167 C 5.88 g/m*3 6.84 C 0 km/h
1046 17-01-2011 00:00:00 3.62917 C 5.41 g/m*3 3.63 C 0 km/h
1047 18-01-2011 00:00:00 7.28833 C 6.01 g/m*3 7.29 C 0 km/h
1048 19-01-2011 00:00:00 3.30833 C 4.71 g/m*3 3.31 C 0 km/h
1049 20-01-2011 00:00:00 1.7 C 4.36 g/m*3 1.7 C 0 km/h
1050 21-01-2011 00:00:00 -0.0675 C 3.06 g/m*3 -0.07 C 0 km/h
Sensor: Nr:Datum:Temp:Abs-Feuchte:Windchill:Wind:
Aussen-T/F 1051 22-01-2011 00:00:00 0.39664 C 3.9 g/m*3 0.4 C 0 km/h
1052 23-01-2011 00:00:00 1.50167 C 4.65 g/m*3 1.5 C 0 km/h
1053 24-01-2011 00:00:00 3.10167 C 5.07 g/m*3 3.1 C 0 km/h
1054 25-01-2011 00:00:00 2.49833 C 4.56 g/m*3 2.5 C 0 km/h
1055 26-01-2011 00:00:00 0.84083 C 4.26 g/m*3 0.84 C 0 km/h
1056 27-01-2011 00:00:00 -0.28583 C 3.4 g/m*3 -0.29 C 0 km/h
1057 28-01-2011 00:00:00 -1.27083 C 2.87 g/m*3 -1.27 C 0 km/h
1058 29-01-2011 00:00:00 -4.9 C 2.7 g/m*3 -4.9 C 0 km/h
1059 30-01-2011 00:00:00 -6.20917 C 2.48 g/m*3 -6.21 C 0 km/h
1060 31-01-2011 00:00:00 -5.73833 C 2.59 g/m*3 -5.74 C 0 km/h
1061 01-02-2011 00:00:00 -4.03917 C 2.66 g/m*3 -4.04 C 0 km/h
1062 02-02-2011 00:00:00 -0.865 C 3.47 g/m*3 -0.87 C 0 km/h
1063 03-02-2011 00:00:00 1.94454 C 4.48 g/m*3 1.94 C 0 km/h
1064 04-02-2011 00:00:00 6.18583 C 5.15 g/m*3 6.19 C 0 km/h
1065 05-02-2011 00:00:00 9.25833 C 5.56 g/m*3 9.26 C 0 km/h
1066 06-02-2011 00:00:00 8.62 C 5.16 g/m*3 8.62 C 0 km/h
1067 07-02-2011 00:00:00 6.48083 C 4.13 g/m*3 6.48 C 0 km/h
1068 08-02-2011 00:00:00 5.48833 C 4.56 g/m*3 5.49 C 0 km/h
1069 09-02-2011 00:00:00 -0.23333 C 3.95 g/m*3 -0.23 C 0 km/h
1070 10-02-2011 00:00:00 3.9425 C 4.99 g/m*3 3.94 C 0 km/h
1071 11-02-2011 00:00:00 10.23917 C 7.08 g/m*3 10.24 C 0 km/h
1072 12-02-2011 00:00:00 6.88 C 6.26 g/m*3 6.88 C 0 km/h
1073 13-02-2011 00:00:00 5.13417 C 5.66 g/m*3 5.13 C 0 km/h
1074 14-02-2011 00:00:00 5.215 C 5.63 g/m*3 5.22 C 0 km/h
1075 15-02-2011 00:00:00 5.14958 C 5.71 g/m*3 5.15 C 0 km/h
Sensor: Nr:Datum:Temp:Abs-Feuchte:Windchill:Wind:
Aussen-T/F 1076 16-02-2011 00:00:00 4.90417 C 5.38 g/m*3 4.9 C 0 km/h
1077 17-02-2011 00:00:00 1.96333 C 4.29 g/m*3 1.96 C 0 km/h
1078 18-02-2011 00:00:00 2.23667 C 4.1 g/m*3 2.24 C 0 km/h
1079 19-02-2011 00:00:00 2.82833 C 4.31 g/m*3 2.83 C 0 km/h
1080 20-02-2011 00:00:00 0.7 C 3.16 g/m*3 0.7 C 0 km/h
1081 21-02-2011 00:00:00 -1.8125 C 2.2 g/m*3 -1.81 C 0 km/h
1082 22-02-2011 00:00:00 -3.39167 C 1.99 g/m*3 -3.39 C 0 km/h
1083 23-02-2011 00:00:00 -2.66583 C 2.02 g/m*3 -2.67 C 0 km/h
1084 24-02-2011 00:00:00 0.91083 C 3.9 g/m*3 0.91 C 0 km/h
1085 25-02-2011 00:00:00 3.445 C 5.16 g/m*3 3.45 C 0 km/h
1086 26-02-2011 00:00:00 5.07167 C 5.18 g/m*3 5.07 C 0 km/h
1087 27-02-2011 00:00:00 5.47731 C 5.17 g/m*3 5.48 C 0 km/h
1088 28-02-2011 00:00:00 4.52333 C 4.47 g/m*3 4.52 C 0 km/h
1089 01-03-2011 00:00:00 4.31167 C 4.54 g/m*3 4.31 C 0 km/h
1090 02-03-2011 00:00:00 3.41 C 3.07 g/m*3 3.41 C 0 km/h
1091 03-03-2011 00:00:00 1.585 C 2.66 g/m*3 1.59 C 0 km/h
1092 04-03-2011 00:00:00 2.1825 C 3.4 g/m*3 2.18 C 0 km/h

Maximal/Minimal-Werte vom 05.03.2008 - 04.03.2011

Sensor Min Max Avg
Temp
(Aussen-T/F)
-16.4 °C
20-12-2009  01:30:01
36 °C
10-07-2010  17:47:03
11.09 °C
Abs-Feuchte
(Aussen-T/F)
1.12 g/m*3
19-12-2009  00:00:00
13.98 g/m*3
30-06-2009  00:00:00
6.87 g/m*3
Windchill
(Aussen-T/F)
-12.79 C
19-12-2009  00:00:00
29.26 C
10-07-2010  00:00:00
11.01 C

Die Daten stammen von einer Davis Vantage Pro 2 Wetter-Station und werden unter Linux mit der Software wview2wettercgi und aufbereitet. Alle Angaben erfolgen ohne Gewähr für ihre Vollständigkeit oder Richtigkeit.
Kontakt: Rainer Krienke krienke@uni-koblenz.de . Meine Webseiten an der Uni Koblenz oder privat.
Version: $Revision: 0.78 $